Biedriem

VSK Noskrien twitter
VSK Noskrien Facebook profils

Polar M400 HR
Ūdensizturīgs GPS pulsometrs ikdienas treniņiem un sportiskiem sasniegumiem.
EUR 189.00

Noskrietais


Visi skrējieni šim skrējējam
Datums Notikums Skrējējs Km Laiks Pulss Am min/km km/h Apavi
19/01/19 Brīvības ielas veloceliņš Cassandra 22.00 2:12:02 06:00 10.00 ir
18/01/19 Pa banti Cassandra 10.40 55:00 05:17 11.35 ir
17/01/19 Kaut kāds murgs Cassandra 10.30 1:02:35 06:04 9.87 ir
15/01/19 Rīta riksis pa kupenām Cassandra 4.20 26:04 06:12 9.67 ir
14/01/19 Ledus un sniega putra Cassandra 10.20 1:00:26 05:55 10.13 ir
57.10
12/01/19 Piesnigušā mežā Cassandra 16.15 1:39:52 06:11 9.70 ir
11/01/19 Sniega putra Cassandra 10.10 1:00:25 05:58 10.03 ir
10/01/19 Vēls vakars Cassandra 9.56 55:58 05:51 10.25 ir
09/01/19 Vakara riksis Cassandra 11.41 1:08:58 06:02 9.93 ir
08/01/19 Pa mello banti Cassandra 10.00 52:03 05:12 11.53 ir
08/01/19 Rīta riksis Cassandra 3.10 19:01 06:08 9.78 ir
07/01/19 Brīvības ielas veloceliņš Cassandra 10.00 58:03 05:48 10.34 ir
70.32
05/01/19 Līdz jūrai Cassandra 23.45 2:18:12 05:53 10.18 ir
04/01/19 Vakara riksis Cassandra 10.00 58:15 05:49 10.30 ir
03/01/19 Pa mello banti Cassandra 10.00 52:30 05:15 11.43 ir
03/01/19 Rīta bišķiņš Cassandra 3.10 18:31 05:58 10.05 ir
02/01/19 Sniegavētra Cassandra 7.05 41:28 05:52 10.20 ir
01/01/19 Veiksmīgu!!! Cassandra 11.70 1:08:13 05:49 10.29 ir
31/12/18 Noslēdzošais. Gar jūru. Cassandra 12.62 1:18:14 06:11 9.68 ir
77.92
30/12/18 Brīvdabas muzejs Cassandra 23.86 2:15:57 05:41 10.53 ir
29/12/18 30 min pa banti Cassandra 6.10 30:00 04:55 12.20 ir
29/12/18 Rīta riksis Cassandra 4.40 25:51 05:52 10.21 ir
28/12/18 Vakariņš Cassandra 8.31 47:44 05:44 10.45 ir
28/12/18 Rīta riksis Cassandra 5.10 31:21 06:08 9.76 ir
27/12/18 Stadions Cassandra 12.31 1:11:40 05:49 10.31 ir
26/12/18 Beidzot asfalts Cassandra 13.05 1:14:01 05:40 10.58 ir
25/12/18 Bišķiņš pēc kalna Cassandra 6.00 34:34 05:45 10.41 ir
24/12/18 Piesnigušas meža takas Cassandra 11.10 1:08:06 06:08 9.78 ir
90.23
23/12/18 Vakara aplītis Cassandra 5.10 30:05 05:53 10.17 ir
22/12/18 Ziemīgs Mežaparks. Jauki. Cassandra 25.10 2:29:06 05:56 10.10 ir
21/12/18 Piesnigušas takas Cassandra 9.05 52:37 05:48 10.32 ir
20/12/18 Pusnaktī pēc ballītes Cassandra 8.20 48:51 05:57 10.07 ir
19/12/18 Vakara bišķiņš Cassandra 7.05 41:34 05:53 10.18 ir
18/12/18 Pārkarsušās galvas pavēdināšana Cassandra 8.02 47:49 05:57 10.06 ir
17/12/18 Rīta riksis pa kupenām (pirms...) Cassandra 7.56 47:24 06:16 9.57 ir
70.08
15/12/18 Zunda kanāls un Mežaparks Cassandra 32.15 3:12:13 05:58 10.04 ir
14/12/18 Vakara riksis Cassandra 10.75 1:01:19 05:42 10.52 ir
13/12/18 Vakara riksis Cassandra 10.25 59:38 05:49 10.31 ir
12/12/18 Alfas aplītis Cassandra 13.00 1:15:54 05:50 10.28 ir
11/12/18 Pēc Loreal vakariņām Cassandra 11.06 1:07:06 06:04 9.89 ir
10/12/18 Mells ledus Cassandra 7.70 46:21 06:01 9.97 ir
84.91
09/12/18 Jūra Cassandra 27.21 2:42:37 05:58 10.04 ir
08/12/18 Pa mello banti Cassandra 10.00 48:25 04:50 12.39 ir
07/12/18 Vakara riksis ar daiļslidošanas elementiem Cassandra 14.30 1:26:35 06:03 9.91 ir
06/12/18 Es slīdēju pa slidotavu... Cassandra 12.22 1:11:19 05:50 10.28 ir
05/12/18 Alfas aplītis Cassandra 11.55 1:06:24 05:44 10.44 ir
04/12/18 Stadions Cassandra 11.00 1:04:06 05:49 10.30 ir
03/12/18 Slidens Cassandra 15.25 1:30:39 05:56 10.09 ir
101.53
01/12/18 Ziemīgi Biķernieku aplīši Cassandra 30.85 2:58:56 05:48 10.34 ir
30/11/18 Mājās. Briesmīgi auksti. Cassandra 6.25 35:10 05:37 10.66 ir
29/11/18 Trusīšu parks un Japāņu dārzi Cassandra 14.55 1:23:17 05:43 10.48 ir
28/11/18 Basilica of the Sacred Heart Cassandra 10.60 1:05:19 06:09 9.74 ir
27/11/18 Notre-Dame de Laeken un miljons trusīši Cassandra 14.00 1:19:15 05:39 10.60 ir
26/11/18 Briseles kanāla promenāde Cassandra 9.05 49:28 05:27 10.98 ir
26/11/18 Rīta riksis Cassandra 4.10 24:54 06:04 9.88 ir
89.40
25/11/18 Biķernieku aplītis Cassandra 8.31 47:22 05:41 10.53 ir
24/11/18 Mežaparks pirmajā sniedziņā Cassandra 25.12 2:25:46 05:48 10.34 ir
23/11/18 40 min pa mello banti Cassandra 8.30 40:00 04:49 12.45 ir
23/11/18 Rīta riksis Cassandra 3.40 20:19 05:58 10.04 ir
22/11/18 Vakara riksis Cassandra 15.30 1:27:07 05:41 10.54 ir
21/11/18 Alfas aplītis Cassandra 12.05 1:08:03 05:38 10.62 ir
20/11/18 Intervāliņi stadionā Cassandra 8.30 46:47 05:38 10.64 ir
19/11/18 Pirms kūkas cepšanas Cassandra 10.55 1:02:24 05:54 10.14 ir
91.33
18/11/18 Saulains svētku rīts Cassandra 10.05 1:00:09 05:59 10.02 ir
17/11/18 Patriots Cassandra 23.00 2:07:25 05:32 10.83 ir
16/11/18 Rīta riksis Cassandra 2.55 15:49 06:12 9.67 ir
15/11/18 Galvas pavēdināšana Cassandra 4.60 25:51 05:37 10.68 ir
14/11/18 No servisa + daži intervāli Cassandra 8.05 45:59 05:42 10.50 ir
13/11/18 Tumsa, lietus, peļķes Cassandra 10.00 58:26 05:50 10.27 ir
12/11/18 Vakara riksis ar izmircienu Cassandra 9.03 50:32 05:35 10.72 ir
67.28
11/11/18 Stīvuma izdzīšana Cassandra 4.65 29:50 06:24 9.35 ir
10/11/18 Rīgas rogainings Cassandra 47.60 5:54:00 07:26 8.07 ir
08/11/18 Izkustēšanās Cassandra 4.50 26:55 05:58 10.03 ir
07/11/18 Biķernieku aplīši Cassandra 11.80 1:09:09 05:51 10.24 ir
06/11/18 Vakara riksis Cassandra 9.10 52:22 05:45 10.43 ir
05/11/18 Rīta riksītis Cassandra 3.50 20:46 05:56 10.11 ir
81.15
03/11/18 Alfas aplītis Cassandra 14.10 1:22:53 05:52 10.21 ir
02/11/18 Vakariņš Cassandra 8.10 48:57 06:02 9.93 ir
01/11/18 Mēģinājums pakustēties Cassandra 4.20 26:04 06:12 9.67 ir
31/10/18 Bišķiņš pa mello banti Cassandra 5.00 26:44 05:20 11.22 ir
31.40
27/10/18 Haanja Cassandra 100.00 12:57:44 07:46 7.71 ir
24/10/18 Rīta riksis Cassandra 2.40 14:07 05:52 10.20 ir
23/10/18 Daži intervāliņi Cassandra 8.15 47:07 05:46 10.38 ir
22/10/18 Galvas pavēdināšana Cassandra 5.15 29:52 05:47 10.35 ir
115.70
20/10/18 Lapas dzeltenās un lapas tumši sārtās... Cassandra 25.25 2:20:14 05:33 10.80 ir
19/10/18 Vakara riksis Cassandra 10.25 57:23 05:35 10.72 ir
18/10/18 Intervāliņi stadionā Cassandra 11.00 1:00:40 05:30 10.88 ir
17/10/18 Jauks vakariņš Cassandra 11.07 1:03:39 05:44 10.44 ir
16/10/18 Alfas aplītis Cassandra 11.15 1:02:53 05:38 10.64 ir
15/10/18 Viegla izkustēšanās. Drusku sāp. Cassandra 6.30 36:52 05:51 10.25 ir
75.02
13/10/18 Meža smaržas, zeltainas lapas un pampaciņi Cassandra 33.00 3:16:20 05:56 10.08 ir
12/10/18 Vakara bišķiņš Cassandra 8.00 46:36 05:49 10.30 ir
11/10/18 Biķernieki tumsiņā Cassandra 11.15 1:06:03 05:55 10.13 ir
10/10/18 Mierīgs vakariņš Cassandra 15.25 1:30:10 05:54 10.15 ir
09/10/18 Alfas aplītis & stadions Cassandra 15.00 1:25:23 05:41 10.54 ir
08/10/18 Bišķiņš Cassandra 5.25 31:35 06:00 9.97 ir
87.65
06/10/18 Mangaļu mols saulrietā Cassandra 31.06 3:05:57 05:59 10.02 ir
05/10/18 Pūkains vakariņš Cassandra 10.22 59:42 05:50 10.27 ir
04/10/18 Alfas aplītis Cassandra 12.50 1:11:41 05:44 10.46 ir
03/10/18 Vakara riksis ar izmircienu Cassandra 6.40 35:51 05:36 10.71 ir
03/10/18 Rīta takas Cassandra 5.50 33:59 06:10 9.71 ir
02/10/18 Alfas aplītis Cassandra 13.33 1:17:09 05:47 10.37 ir
01/10/18 Alfas aplītis Cassandra 13.15 1:15:16 05:43 10.48 ir
92.16
29/09/18 Dzestrs vakars Cassandra 10.60 1:01:27 05:47 10.35 ir
29/09/18 Rīta riksis Cassandra 4.25 25:32 06:00 9.99 ir
27/09/18 Bišķiņš Cassandra 3.30 19:55 06:02 9.94 ir
26/09/18 Rudenīga meža smaržas Cassandra 3.50 22:22 06:23 9.39 ir
25/09/18 Recoverijs-2 Cassandra 5.65 36:24 06:26 9.31 ir
24/09/18 Stīvais paklunkurējiens Cassandra 3.20 20:52 06:31 9.20 ir
30.50
22/09/18 12h ap Māras dīķi Cassandra 111.60 12:00:00 06:27 9.30 ir
20/09/18 Rīta iekustēšanās Cassandra 2.60 15:55 06:07 9.80 ir
19/09/18 Vakariņš stadionā Cassandra 6.00 35:06 05:51 10.26 ir
18/09/18 Viegla izkustēšanās Cassandra 5.65 33:42 05:57 10.06 ir
17/09/18 Recoverijs Cassandra 3.00 17:15 05:45 10.43 ir
128.85
16/09/18 Valmiera. PB! Cassandra 42.20 3:47:40 05:23 11.12 ir
14/09/18 Pakustēšanās Cassandra 3.50 20:05 05:44 10.46 ir
13/09/18 Vakara riksis pa stadionu Cassandra 7.03 38:55 05:32 10.84 ir
12/09/18 Pēclekciju riksītis Cassandra 6.10 34:05 05:35 10.74 ir
11/09/18 Brriesmīgi agrs rīts Briselē Cassandra 2.60 15:44 06:03 9.92 ir
10/09/18 Parc de Bruxelles Cassandra 10.20 59:14 05:48 10.33 ir
71.63
09/09/18 Biķernieku taciņas un bišķis pa stadionu Cassandra 19.10 1:47:51 05:38 10.63 ir
07/09/18 Alfas aplītis tempiņā Cassandra 15.60 1:24:42 05:25 11.05 ir
06/09/18 Vakariņš Cassandra 12.16 1:10:08 05:46 10.40 ir
05/09/18 Pēclekciju riksis Cassandra 13.22 1:14:36 05:38 10.63 ir
04/09/18 Apgaismotā BT Cassandra 9.05 50:14 05:33 10.81 ir
04/09/18 Rīta riksis Cassandra 3.50 20:35 05:52 10.20 ir
03/09/18 Vakara riksis Biķerniekos Cassandra 12.00 1:07:11 05:35 10.72 ir
84.63
01/09/18 Meža aplīši Cassandra 12.70 1:09:12 05:26 11.01 ir
31/08/18 Stadions Cassandra 8.40 44:15 05:16 11.39 ir
30/08/18 Carnikava Cassandra 34.65 3:26:19 05:57 10.08 ir
29/08/18 Galvas pavēdināšana Cassandra 8.05 45:31 05:39 10.61 ir
28/08/18 Tempiņš Cassandra 7.50 38:15 05:06 11.76 ir
28/08/18 Mājas. Rīta riksis Cassandra 3.25 18:04 05:33 10.79 ir
27/08/18 Barselonas promenāde Cassandra 5.10 28:13 05:31 10.84 ir
79.65
26/08/18 Girona Cassandra 7.20 43:37 06:03 9.90 ir
23/08/18 Saint Girons Cassandra 4.00 23:10 05:47 10.36
21/08/18 Rīta duša un intervāli Cassandra 5.10 27:42 05:25 11.05 ir
20/08/18 Smaržo mežs Cassandra 11.52 1:01:24 05:19 11.26 ir
27.82
19/08/18 Piemājas mežiņš Cassandra 7.80 44:03 05:38 10.62 ir
18/08/18 Kalngales takas Cassandra 7.70 44:18 05:45 10.43 ir
17/08/18 Kalngales takas un saulriets Carnikavā Cassandra 23.50 2:15:03 05:44 10.44 ir
16/08/18 Smilšu takas Cassandra 15.20 1:27:33 05:45 10.42 ir
15/08/18 Biķernieku aplīši Cassandra 11.55 1:07:07 05:48 10.33 ir
14/08/18 Under the pouring rain Cassandra 12.05 1:08:23 05:40 10.57 ir
13/08/18 Apmaldīšanās piemājas mežiņā Cassandra 13.85 1:21:42 05:53 10.17 ir
91.65
12/08/18 Nepazīstamais mežs Cassandra 11.03 1:03:44 05:46 10.38 ir
11/08/18 Rudenīgs lietus Cassandra 20.30 1:58:10 05:49 10.31 ir
10/08/18 Rīta riksis Cassandra 10.00 1:00:38 06:03 9.90 ir
09/08/18 Slinkuma lāpīšana Cassandra 6.05 37:42 06:13 9.63 ir
08/08/18 Rīts mežā Cassandra 10.25 1:02:44 06:07 9.80 ir
07/08/18 Stadions tumsiņā Cassandra 9.00 56:41 06:17 9.53 ir
06/08/18 Recoverijs Cassandra 8.16 51:06 06:15 9.58 ir
74.79
04/08/18 Cēsu Eco trail Cassandra 77.00 10:15:51 07:59 7.50 ir
03/08/18 Iekustēšanās Cassandra 5.00 30:28 06:05 9.85 ir
01/08/18 Mazais rīta riksis Cassandra 2.00 12:06 06:03 9.92 ir
31/07/18 Kedu testēšana Cassandra 9.30 54:36 05:52 10.22 ir
30/07/18 Rīta takas Cassandra 7.05 40:54 05:48 10.34 ir
100.35
29/07/18 Rīta riksis pa pampaciņiem Cassandra 11.15 1:08:12 06:06 9.81 ir
27/07/18 Sigulda. Traki. Cassandra 22.10 2:40:12 07:14 8.28 ir
26/07/18 Atkal nepaspēju uz Siguldu Cassandra 14.45 1:23:32 05:46 10.38 ir
25/07/18 Gandrīz pilnmēness Cassandra 12.00 1:09:20 05:46 10.38 ir
24/07/18 Biķernieku aplīši Cassandra 14.02 1:21:33 05:49 10.32 ir
23/07/18 Bišķiņš galvas pavēdināšanai Cassandra 6.10 36:37 06:00 10.00 ir
79.82
21/07/18 Jauno Cloudu testēšana pa pampaciņiem Cassandra 11.05 1:05:07 05:53 10.18 ir
21/07/18 Paslinks rīts Cassandra 3.70 22:50 06:10 9.72 ir
20/07/18 Bišķiņš Cassandra 7.25 44:16 06:06 9.83 ir
19/07/18 Pārkarsušās galvas izvēdināšana Cassandra 12.45 1:12:40 05:50 10.28 ir
18/07/18 Takas un stadions Cassandra 14.10 1:21:25 05:46 10.39 ir
17/07/18 Vasaras nakts riksis Cassandra 8.00 46:43 05:50 10.27 ir
16/07/18 Tropu nakts Cassandra 12.10 1:13:01 06:02 9.94 ir
68.65
14/07/18 Jūra un kāpas. Grūti. Cassandra 30.03 2:53:33 05:46 10.38 ir
14/07/18 Rīta riksis Cassandra 2.80 16:11 05:46 10.38 ir
13/07/18 Takas un pampaciņi Cassandra 11.07 1:04:18 05:48 10.33 ir
12/07/18 Pūkains Cassandra 12.15 1:08:08 05:36 10.70 ir
11/07/18 Jauks vakariņš Cassandra 12.25 1:08:37 05:36 10.71 ir
10/07/18 Daži tempiņi Cassandra 12.32 1:08:36 05:34 10.78 ir
09/07/18 Pēcsvētku rīts Cassandra 10.20 58:39 05:45 10.43 ir
90.82
08/07/18 Uz Ibeneti Cassandra 11.17 1:03:12 05:39 10.60 ir
07/07/18 Slinkuma lāpīšana Cassandra 13.00 1:15:10 05:46 10.38 ir
06/07/18 Briesmīgslinkais Cassandra 9.32 55:22 05:56 10.10 ir
05/07/18 Uz servisu pēc Subīša Cassandra 11.60 1:07:21 05:48 10.33 ir
04/07/18 Nepazīstamas Biķernieku takas Cassandra 11.25 1:06:52 05:56 10.09 ir
03/07/18 Rudenīgs lietus Cassandra 10.50 1:00:48 05:47 10.36 ir
03/07/18 Rīts stadionā Cassandra 4.10 24:19 05:55 10.12 ir
02/07/18 Vakara riksis Cassandra 10.65 1:01:22 05:45 10.41 ir
81.59
01/07/18 Rīta riksis Cassandra 8.10 47:32 05:52 10.22 ir
30/06/18 Mierīgs vakariņš Cassandra 10.70 1:02:46 05:51 10.23 ir
29/06/18 Biķernieku takas Cassandra 12.10 1:13:54 06:06 9.82 ir
28/06/18 Vakara riksītis Cassandra 8.12 48:25 05:57 10.06 ir
27/06/18 Jauks vakariņš Cassandra 9.23 56:54 06:09 9.73 ir
26/06/18 Recoverijs Cassandra 5.05 31:25 06:13 9.64 ir
53.30
23/06/18 Rīga-Valmiera Cassandra 107.00 12:20:44 06:55 8.67 ir
21/06/18 Under the pouring rain Cassandra 5.16 30:37 05:56 10.11 ir
20/06/18 Bišķiņš galvas pavēdināšanai Cassandra 3.00 18:17 06:05 9.85 ir
19/06/18 Vestes testēšana Cassandra 8.81 51:12 05:48 10.32 ir
18/06/18 Vakara izkustēšanās Cassandra 6.21 36:55 05:56 10.09 ir
130.18
16/06/18 Jūra Cassandra 28.20 2:42:39 05:46 10.40 ir
15/06/18 Biķernieku aplīši Cassandra 12.01 1:10:52 05:54 10.17 ir
14/06/18 Vakariņš Cassandra 12.00 1:10:40 05:53 10.19 ir
13/06/18 Pēc trakas dienas Cassandra 11.40 1:09:00 06:03 9.91 ir
12/06/18 Vakara riksis Cassandra 11.55 1:10:17 06:05 9.86 ir
11/06/18 Rīta takas Cassandra 3.50 21:20 06:05 9.84 ir
78.66
09/06/18 Berģi, jasmīni un smilšu takas Cassandra 35.17 3:25:57 05:51 10.25 ir
08/06/18 Vakara riksis Cassandra 9.31 53:07 05:42 10.52 ir
08/06/18 Rīta takas Cassandra 3.33 20:51 06:15 9.58 ir
07/06/18 Vasara atpakaļ Cassandra 13.15 1:16:01 05:46 10.38 ir
06/06/18 Biķernieku aplīši Cassandra 13.05 1:15:26 05:46 10.38 ir
05/06/18 Briesmīgs pūtiens Cassandra 11.03 1:06:23 06:01 9.97 ir
04/06/18 Vakara vējā Cassandra 12.85 1:15:48 05:53 10.17 ir
97.89
02/06/18 Atpakaļ izkaltušajā mežā Cassandra 15.15 1:27:31 05:46 10.39 ir
01/06/18 Liepziedi Cassandra 15.06 1:25:30 05:40 10.57 ir
31/05/18 Kanālmala Cassandra 12.15 1:09:28 05:43 10.49 ir
30/05/18 Slinkais Cassandra 8.25 49:07 05:57 10.08 ir
29/05/18 Briseles kanála promenāde Cassandra 14.00 1:19:37 05:41 10.55 ir
28/05/18 Japáņu dārzi, miljons trusīši un kanāla promenāde Cassandra 13.70 1:19:01 05:46 10.40 ir
78.31
27/05/18 Brisele negaisā Cassandra 5.52 30:10 05:27 10.98 ir
27/05/18 Rīts sakarsušā mežā Cassandra 7.51 44:21 05:54 10.16 ir
26/05/18 Burvīgs vasaras vakars Cassandra 15.65 1:30:10 05:45 10.41 ir
25/05/18 Reibinošas akācijas Cassandra 10.00 58:56 05:53 10.18 ir
24/05/18 Pēdējo ceriņu smaržas Cassandra 17.50 1:45:16 06:00 9.97 ir
22/05/18 Grrrr, tulzna pārplīsa Cassandra 3.10 19:35 06:19 9.50 ir
21/05/18 Pastīvais Cassandra 3.80 24:32 06:27 9.29 ir
63.08
20/05/18 Lattelecom Rīgas Maratons Cassandra 42.20 4:02:32 173 05:44 10.44 ir
18/05/18 Izkustēšanās Cassandra 5.10 30:38 06:00 9.99 ir
17/05/18 Lietutiņā Cassandra 5.05 31:18 06:11 9.68 ir
16/05/18 Daži intervāliņi Cassandra 7.85 46:17 05:53 10.18 ir
15/05/18 Vasaras vakars Cassandra 8.75 52:10 05:57 10.06 ir
14/05/18 Teikas ceriņi Cassandra 3.05 18:51 06:10 9.71 ir
72.00
12/05/18 Ceriņi un ābeļziedi Cassandra 23.00 2:14:17 05:50 10.28 ir
11/05/18 Ceriņu kupenas Cassandra 15.22 1:25:11 05:35 10.72 ir
11/05/18 Rīta takas Cassandra 3.55 21:56 06:10 9.71 ir
10/05/18 Kūku sakratīšana Cassandra 1.60 09:45 06:05 9.85 ir
09/05/18 Sastapšanās ar niknu ezi Cassandra 12.20 1:11:23 05:51 10.25 ir
08/05/18 Fantastisks vakariņš Cassandra 12.01 1:12:53 06:04 9.89 ir
07/05/18 Neprātīgi smaržo ievas Cassandra 10.15 1:00:28 05:57 10.07 ir
77.73
06/05/18 Recoverijs Cassandra 4.20 28:16 06:43 8.92 ir
05/05/18 Vändra - the slowest ever Cassandra 42.20 4:16:19 06:04 9.88 ir
03/05/18 Pavasara lietutiņā Cassandra 5.65 33:51 05:59 10.01 ir
02/05/18 Bišķiņš Cassandra 5.15 31:10 06:03 9.91 ir
01/05/18 Pavasara smaržas Cassandra 6.60 40:41 06:09 9.73 ir
30/04/18 Plūmes pilnos ziedos Cassandra 7.35 44:02 05:59 10.02 ir
71.15
28/04/18 Jūra kā spogulis debesīm Cassandra 25.20 2:24:05 05:43 10.49 ir
28/04/18 Rīta iekustēšanās Cassandra 2.16 13:00 06:01 9.97 ir
27/04/18 Paciemoties Cassandra 10.22 1:01:08 05:58 10.03 ir
26/04/18 Mierīgs vakariņš Cassandra 10.15 1:01:28 06:03 9.91 ir
25/04/18 Daži intervāliņi Cassandra 11.05 1:04:04 05:47 10.35 ir
24/04/18 Paslinkais Cassandra 10.05 59:51 05:57 10.08 ir
23/04/18 Vakara riksis Cassandra 12.28 1:09:44 05:40 10.57 ir
81.11
21/04/18 He knows that even new coins have scars Cassandra 30.60 3:01:47 05:56 10.10 ir
20/04/18 Mēnesgaismā Cassandra 13.05 1:15:39 05:47 10.35 ir
19/04/18 Biķernieki tumsiņā Cassandra 13.37 1:17:49 05:49 10.31 ir
18/04/18 Rīta bišķiņš Cassandra 3.55 22:00 06:11 9.68 ir
17/04/18 Dzestrs vakariņš Biķerniekos Cassandra 13.00 1:16:59 05:55 10.13 ir
16/04/18 Dienvidu nakts lietutiņš Cassandra 12.03 1:09:34 05:46 10.38 ir
85.60
14/04/18 Berģi un Juglas takas Cassandra 29.00 3:00:59 06:14 9.61 ir
13/04/18 Vakariņš Cassandra 10.35 1:01:14 05:54 10.14 ir
13/04/18 Saulains rīts mežā Cassandra 4.20 26:31 06:18 9.50 ir
12/04/18 Jauks vakariņš Cassandra 10.20 1:01:19 06:00 9.98 ir
11/04/18 Biķernieku aplīši Cassandra 12.40 1:16:00 06:07 9.79 ir
10/04/18 Stadiona jaunatklāšana Cassandra 10.00 1:02:23 06:14 9.62 ir
09/04/18 Gar Likteņupi Cassandra 15.10 1:31:25 06:03 9.91 ir
09/04/18 Pavasarīgs rīts mežā Cassandra 3.56 22:20 06:16 9.56 ir
94.81
08/04/18 *** Cassandra 3.04 18:51 06:12 9.68 ir
07/04/18 Сгореть и вернуться Cassandra 30.01 3:04:57 06:09 9.74 ir
06/04/18 Есть повод прийти сюда еще один раз Cassandra 3.42 21:55 06:24 9.36 ir
05/04/18 Пустота в пустоту ни о чем Cassandra 8.05 47:12 05:51 10.23 ir
05/04/18 Сколько ни кричи Cassandra 3.25 20:11 06:12 9.66 ir
04/04/18 Потому что они не хотят Cassandra 10.05 59:22 05:54 10.16 ir
04/04/18 Они не выйдут из клетки Cassandra 3.18 20:42 06:30 9.22 ir
03/04/18 У каждого судьба, у каждого что-то свое Cassandra 12.00 1:12:11 06:00 9.97 ir
02/04/18 Что спрятано под темной водой Cassandra 11.00 56:57 05:10 11.59 ir
02/04/18 Теперь мне все равно Cassandra 2.00 12:42 06:21 9.45 ir
86.00
01/04/18 Солнцу не пробиться в глубину этих глаз Cassandra 10.61 1:06:19 06:15 9.60 ir
30/03/18 *** Cassandra 21.85 2:18:01 06:18 9.50 ir
29/03/18 We witnessed the ending, of time where we stood Cassandra 10.54 1:05:20 06:11 9.68 ir
29/03/18 The beauty of heaven, falling to pieces Cassandra 5.31 34:09 06:25 9.33 ir
28/03/18 Where angels where gruesome, and devils where good Cassandra 13.25 1:22:38 06:14 9.62 ir
27/03/18 The distance evinced, a drama of conflict Cassandra 11.02 1:09:46 06:19 9.48 ir
26/03/18 Again Cassandra 5.37 34:40 06:27 9.29 ir
77.95
24/03/18 We kissed this world goodbye Cassandra 17.55 1:51:05 06:19 9.48 ir
23/03/18 In the grassy fields, where the world goes to sleep Cassandra 9.02 56:53 06:18 9.51 ir
22/03/18 *** Cassandra 5.15 34:12 06:38 9.04 ir
21/03/18 In dark and empty skies Cassandra 7.00 35:05 05:00 11.97 ir
21/03/18 And the bright light of salvation shines Cassandra 5.50 34:26 06:15 9.58 ir
20/03/18 Where the spirit never dies Cassandra 7.11 44:39 06:16 9.55 ir
19/03/18 Oh, the tree of life is growing Cassandra 13.02 1:23:02 06:22 9.41 ir
64.35
17/03/18 Just remember that death is not the end Cassandra 15.60 1:38:44 06:19 9.48 ir
16/03/18 Not the end, not the end Cassandra 2.70 17:45 06:34 9.13 ir
15/03/18 Just remember that death is not the end Cassandra 10.67 1:08:40 06:26 9.32 ir
14/03/18 And you don’t know what’s up the bend Cassandra 10.00 55:30 05:33 10.81 ir
14/03/18 And all your dreams have vanished Cassandra 3.05 20:08 06:36 9.09 ir
13/03/18 Just remember that death is not the end Cassandra 9.05 58:45 06:29 9.24 ir
12/03/18 That you cannot comprehend Cassandra 7.50 48:26 06:27 9.29 ir
58.57
10/03/18 When you’re standing at the crossroads Cassandra 8.10 51:51 06:24 9.37 ir
09/03/18 Sākas tur kur nemirstība Cassandra 6.00 41:04 06:50 8.77 ir
08/03/18 Mīlestība, mīlestība Cassandra 5.30 30:00 05:39 10.60 ir
08/03/18 Esmeralda Cassandra 3.01 19:59 06:38 9.04 ir
07/03/18 Pasaulē šai sāpes valda Cassandra 7.50 47:46 06:22 9.42 ir
06/03/18 Esmeralda, Esmeralda Cassandra 4.16 26:37 06:23 9.38 ir
05/03/18 Mēs viens otram nepazustu Cassandra 2.00 12:10 06:05 9.86 ir
36.07
28/02/18 Lai šo mirkli projām ceļā Cassandra 6.00 31:30 05:15 11.43 ir
27/02/18 kā krustu Cassandra 2.00 11:58 05:59 10.03 ir
26/02/18 Nes uz spārniem mūs Cassandra 3.61 23:04 06:23 9.39 ir
26/02/18 Sargeņģeli, Cassandra 3.41 20:46 06:05 9.85 ir
15.02
24/02/18 Sargeņģeli, Cassandra 3.40 21:55 06:26 9.31 ir
3.40
17/02/18 ... Cassandra 3.43 22:38 06:35 9.09 ir
17/02/18 It kā parasts rīts Cassandra 4.34 28:47 06:37 9.05 ir
16/02/18 Zālītē pirms peldēšanas (5X) Cassandra 8.00 43:40 05:27 10.99 ir
16/02/18 Rīta takas Cassandra 4.03 25:16 06:16 9.57 ir
15/02/18 Vakariņš Cassandra 7.15 42:40 05:58 10.05 ir
15/02/18 Rīta meža riksis Cassandra 4.00 25:03 06:15 9.58 ir
14/02/18 Brrriesmīgi agrs rīts Cassandra 4.20 26:27 06:17 9.53 ir
13/02/18 Rīta meža riksis Cassandra 4.20 27:32 06:33 9.15 ir
12/02/18 Slidenās ietves Cassandra 9.22 59:12 06:25 9.34 ir
48.57
10/02/18 Līdz jūrai Cassandra 12.40 1:16:29 06:10 9.73 ir
10/02/18 Rīts stadionā Cassandra 5.00 31:56 06:23 9.39 ir
09/02/18 Pa mello banti (pirms peldēšanas) Cassandra 8.00 43:35 05:26 11.01 ir
09/02/18 Meža riksis Cassandra 3.62 23:09 06:23 9.38 ir
08/02/18 Vakara bišķiņš Cassandra 5.85 36:00 06:09 9.75 ir
08/02/18 Meža riksis Cassandra 3.56 22:39 06:21 9.43 ir
07/02/18 Stadions Cassandra 7.21 45:56 06:22 9.42 ir
07/02/18 18. nedēļa: rīta riksis Cassandra 3.40 21:46 06:24 9.37 ir
06/02/18 Sniega prieki Cassandra 5.50 34:20 06:14 9.61 ir
06/02/18 Rīta bišķinš Cassandra 3.20 19:54 06:13 9.65 ir
05/02/18 :D Nu tad jau nekas cits neatliek, kā vilkt kedas :) Cassandra 8.35 50:55 06:05 9.84 ir
66.09
04/02/18 Rīta riksis stadionā Cassandra 5.15 32:27 06:18 9.52 ir
03/02/18 Nu jau šis skaitās garais ;) Cassandra 13.50 1:23:29 06:11 9.70 ir
03/02/18 Rīta riksis stadionā Cassandra 5.62 33:40 05:59 10.02 ir
02/02/18 Vakara izkustēšanās Cassandra 10.22 1:02:18 06:05 9.84 ir
01/02/18 Velo Cassandra 6.10 13:15 02:10 27.62
01/02/18 Vakara riksis Cassandra 9.20 56:26 06:08 9.78 ir
31/01/18 Uz servisu pēc Subīša Cassandra 11.15 1:10:32 06:19 9.48 ir
30/01/18 Traki slīd; labāk neriskēt Cassandra 3.00 19:47 06:35 9.10 ir
29/01/18 Viss slikti... Cassandra 3.41 21:06 06:11 9.70 ir
67.35
28/01/18 Lietus, šļura, peļķes... Cassandra 4.45 27:49 06:15 9.60 ir
27/01/18 Vakara riksis Cassandra 8.00 48:34 06:04 9.88 ir
27/01/18 Daži intervāli stadionā Cassandra 6.30 37:09 05:53 10.17 ir
26/01/18 Vakara riksis Cassandra 7.60 46:53 06:10 9.73 ir
26/01/18 Rīta bišķinš Cassandra 3.90 23:29 06:01 9.96 ir
25/01/18 Slidenās ietves Cassandra 7.11 42:48 06:01 9.97 ir
24/01/18 Rīta riksis gar kanālu Cassandra 7.15 43:20 06:03 9.90 ir
23/01/18 Briseles kanāla promenāde Cassandra 15.00 1:32:05 06:08 9.77 ir
22/01/18 Bišķiņš pēc pieēšanās Cassandra 3.25 18:37 05:43 10.47 ir
22/01/18 Piesnigušas takas Cassandra 7.26 46:05 06:20 9.45 ir
70.02
20/01/18 Apsnigušas takas Cassandra 16.30 1:43:59 06:22 9.41 ir
19/01/18 Vakara riksis Cassandra 9.15 57:02 06:13 9.63 ir
18/01/18 Dikti piesardzīgs Cassandra 9.15 1:01:00 06:40 9.00 ir
17/01/18 Kritiens Cassandra 9.70 58:29 06:01 9.95 ir
16/01/18 Briesmīgauksts vējš Cassandra 10.76 1:04:41 06:00 9.98 ir
15/01/18 Briesmīgauksts Cassandra 3.60 21:22 05:56 10.11 ir
15/01/18 Rīta takas Cassandra 4.15 25:01 06:01 9.95 ir
62.81
14/01/18 Meža takas Cassandra 9.55 58:09 06:05 9.85 ir
13/01/18 Biķernieku un Šmerļa takas Cassandra 17.17 1:48:40 06:19 9.48 ir
12/01/18 Riņķošana pa stadionu Cassandra 9.05 56:02 06:11 9.69 ir
11/01/18 Vakara riksis Cassandra 8.05 48:21 06:00 9.99 ir
10/01/18 Vakara bišķiņš Cassandra 6.05 38:41 06:23 9.38 ir
10/01/18 Rīta takas pirms eksāmena Cassandra 7.07 44:32 06:17 9.53 ir
09/01/18 Pirms sākusies ziema Cassandra 12.56 1:16:48 06:06 9.81 ir
08/01/18 Drusciņš Cassandra 7.45 45:42 06:08 9.78 ir
76.95
07/01/18 Dikti slidens Cassandra 4.40 27:03 06:08 9.76 ir
06/01/18 Biķernieku cilpas Cassandra 17.50 1:46:26 06:04 9.87 ir
05/01/18 Izmirciens Cassandra 13.70 1:24:17 06:09 9.75 ir
04/01/18 Lietus, tumsa, peļķes... Cassandra 10.15 1:00:52 05:59 10.01 ir
03/01/18 Biķernieku aplītis Cassandra 11.50 1:11:16 06:11 9.68 ir
02/01/18 Vakara izkustēšanās Cassandra 8.51 52:13 06:08 9.78 ir
01/01/18 Jaunā gada slapjais Cassandra 15.20 1:34:19 06:12 9.67 ir
80.96
31/12/17 Noslēdzošais Cassandra 10.58 1:03:50 06:02 9.94 ir
30/12/17 Biķernieki Cassandra 14.30 1:23:53 05:51 10.23 ir
29/12/17 Lietutiņā Cassandra 11.17 1:03:44 05:42 10.52 ir
28/12/17 Vakara izkustēšanās Cassandra 8.73 54:43 06:16 9.57 ir
27/12/17 Meža takas un bišķis pa stadionu Cassandra 12.42 1:17:22 06:13 9.63 ir
26/12/17 Brīvdienas riksis Cassandra 15.37 1:31:47 05:58 10.05 ir
25/12/17 Bišķiņš pa stadionu Cassandra 3.25 19:07 05:52 10.20 ir
25/12/17 Saulainā mežā Cassandra 12.01 1:13:59 06:09 9.74 ir
87.83
24/12/17 Šmerļa pampaciņi Cassandra 15.05 1:34:47 06:17 9.53 ir
23/12/17 Bišķiņš pa stadionu Cassandra 5.82 35:07 06:02 9.94 ir
22/12/17 Vakariņš Cassandra 9.50 56:49 05:58 10.03 ir
21/12/17 Pēc ballītes Cassandra 9.10 55:52 06:08 9.77 ir
19/12/17 Naksnīgā Milāna Cassandra 8.21 47:56 05:50 10.28 ir
18/12/17 Milano Cassandra 11.73 1:10:36 06:01 9.97 ir
59.41
17/12/17 Meža takas Cassandra 10.05 1:02:20 06:12 9.67 ir
16/12/17 Rīta bišķinš Cassandra 1.50 09:15 06:10 9.73 ir
16/12/17 Jūra, sniedziņš, migla Cassandra 21.52 2:11:09 06:05 9.85 ir
15/12/17 Mellais ledus Cassandra 10.30 1:01:40 05:59 10.02 ir
14/12/17 Slidenais Cassandra 9.15 54:54 06:00 10.00 ir
13/12/17 Vakara izkustēšanās Cassandra 9.20 55:22 06:01 9.97 ir
12/12/17 Lietū un vējā Cassandra 9.73 59:53 06:09 9.75 ir
11/12/17 Dzestrs vakariņš Cassandra 10.33 1:01:52 05:59 10.02 ir
81.78
10/12/17 Rudenīga meža takas Cassandra 8.05 49:14 06:06 9.81 ir
09/12/17 Biķernieku un Juglas takas Cassandra 21.22 2:13:04 06:16 9.57 ir
08/12/17 Parasts vakariņš Cassandra 10.78 1:04:02 05:56 10.10 ir
07/12/17 Pēc L'Oreal vakariņām Cassandra 13.00 1:20:45 06:12 9.66 ir
06/12/17 Es slīdēju pa slidotavu... Cassandra 14.20 1:27:30 06:09 9.74 ir
05/12/17 Lietus, šļura, peļķes... Cassandra 11.00 1:09:02 06:16 9.56 ir
04/12/17 Vakara riksis Cassandra 10.02 1:01:34 06:08 9.77 ir
88.27
03/12/17 Vakara bišķiņš Cassandra 3.60 21:29 05:58 10.05 ir
03/12/17 Rīta riksis Cassandra 9.02 56:02 06:12 9.66 ir
02/12/17 Biķernieki un Šmerlis Cassandra 21.80 2:12:57 06:05 9.84 ir
01/12/17 Vakara riksis Cassandra 6.05 35:48 05:55 10.14 ir
01/12/17 Rīts piesnigušā mežā Cassandra 4.00 25:57 06:29 9.25 ir
30/11/17 Sabijos Cassandra 7.63 45:45 05:59 10.01 ir
29/11/17 Alfas aplītis Cassandra 13.57 1:22:19 06:03 9.89 ir
28/11/17 Brrriesmīgs laiciņš Cassandra 13.00 1:18:23 06:01 9.95 ir
27/11/17 Pirms trakas dienas Cassandra 7.16 43:46 06:06 9.82 ir
85.83
26/11/17 Bišķiņš pa mežu Cassandra 6.15 37:44 06:08 9.78 ir
25/11/17 Туман над Янцзы Cassandra 21.10 2:05:38 05:57 10.08 ir
24/11/17 Rīta takas Cassandra 6.44 39:02 06:03 9.90 ir
23/11/17 Kamēr vēl varu Cassandra 15.23 1:28:15 05:47 10.35 ir
22/11/17 Paslinkais Cassandra 11.17 1:05:37 05:52 10.21 ir
21/11/17 Alfas aplītis Cassandra 13.25 1:17:24 05:50 10.27 ir
20/11/17 Takas un pampaciņi Cassandra 15.35 1:31:04 05:55 10.11 ir
88.69
19/11/17 Vakara izkustēšanās Cassandra 6.72 39:28 05:52 10.22 ir
18/11/17 Rudenīgas meža takas Cassandra 16.11 1:34:17 05:51 10.25 ir
17/11/17 Mierīgs vakariņš Cassandra 14.05 1:21:24 05:47 10.36 ir
16/11/17 Alfas aplītis Cassandra 10.00 58:05 05:48 10.33 ir
16/11/17 Saulains rīts Cassandra 5.15 31:14 06:03 9.89 ir
15/11/17 Uz servisu pēc Subīša Cassandra 13.05 1:16:14 05:50 10.27 ir
14/11/17 Līdz Mežaparkam Cassandra 12.10 1:12:30 05:59 10.01 ir
13/11/17 Daudz, ko domāt Cassandra 13.55 1:19:27 05:51 10.23 ir
90.73
12/11/17 Jauks vakariņš Cassandra 16.30 1:34:59 05:49 10.30 ir
11/11/17 Bišķiņš pa stadionu Cassandra 6.05 34:17 05:40 10.59 ir
10/11/17 The beginning... Cassandra 13.56 1:18:19 05:46 10.39 ir
09/11/17 Alfas aplītis Cassandra 10.25 57:26 05:36 10.71 ir
09/11/17 Rīta takas Cassandra 5.21 29:31 05:39 10.59 ir
08/11/17 Vakara riksis Cassandra 11.26 1:04:38 05:44 10.45 ir
07/11/17 Vakara riksis Cassandra 15.20 1:27:36 05:45 10.41 ir
06/11/17 Alfas aplītis Cassandra 13.10 1:15:56 05:47 10.35 ir
90.93
05/11/17 Izkustēšanās pēc ceļa Cassandra 3.65 20:56 05:44 10.46 ir
04/11/17 Akmeņainās kalnu takas Cassandra 16.05 1:37:04 06:02 9.92 ir
03/11/17 Park Dasos Kesarianis Cassandra 12.17 1:15:00 06:09 9.74 ir
03/11/17 Saulains rīts Cassandra 5.22 31:26 06:01 9.96 ir
02/11/17 Saulains rīts kalnu takās Cassandra 11.15 1:08:10 06:06 9.81 ir
02/11/17 Vakariņš Nacionālajā parkā Cassandra 7.07 40:18 05:42 10.53 ir
01/11/17 Akmeņainas takas un pampaki Cassandra 13.00 1:22:41 06:21 9.43 ir
01/11/17 Rīts parciņā Cassandra 4.30 28:07 06:32 9.18 ir
31/10/17 Atēnu parki tumsā Cassandra 7.25 44:10 06:05 9.85 ir
30/10/17 Vējainais Cassandra 10.32 1:01:11 05:55 10.12 ir
90.18
29/10/17 Slapjais Cassandra 7.15 41:49 05:50 10.26 ir
28/10/17 Izmirciens Cassandra 19.03 1:53:24 05:57 10.07 ir
27/10/17 Alfas aplītis Cassandra 10.02 56:13 05:36 10.69 ir
26/10/17 Rīts PIRMS... Cassandra 7.36 43:50 05:57 10.07 ir
25/10/17 Pa mello banti Cassandra 8.00 38:57 04:52 12.32 ir
25/10/17 Rīta iekustēšanās Cassandra 4.55 26:50 05:53 10.17 ir
24/10/17 Biķernieku aplīši tumsiņā Cassandra 13.31 1:16:03 05:42 10.50 ir
23/10/17 Vakara riksis Cassandra 15.75 1:29:35 05:41 10.55 ir
85.17
21/10/17 Rudens krāsas un smaržas Cassandra 24.01 2:17:06 05:42 10.51 ir
20/10/17 Ap pusnakti Cassandra 11.01 1:03:19 05:45 10.43 ir
19/10/17 Jauks vakariņš Cassandra 13.08 1:14:48 05:43 10.49 ir
18/10/17 Alfas aplītis Cassandra 13.11 1:17:27 05:54 10.16 ir
17/10/17 Vakara paskrējiens pēc trakas dienas Cassandra 12.07 1:09:57 05:47 10.35 ir
16/10/17 Lapas dzeltenās un lapas tumši sārtās... Cassandra 11.15 1:06:57 06:00 9.99 ir
84.43
14/10/17 Tumsiņā līdz jūrai Cassandra 25.60 2:24:12 05:37 10.65 ir
13/10/17 Vakara riksis Cassandra 14.21 1:21:03 05:42 10.52 ir
12/10/17 Vakariņš stadionā Cassandra 6.00 33:35 05:35 10.72 ir
12/10/17 Pačabināšanās pa lapām Cassandra 6.70 41:12 06:08 9.76 ir
11/10/17 Vakara riksis Cassandra 15.00 1:27:58 05:51 10.23 ir
10/10/17 Galvas pavēdināšana Cassandra 5.00 29:59 05:59 10.01 ir
09/10/17 Dzestrs vakariņš Cassandra 8.55 49:38 05:48 10.34 ir
81.06
08/10/17 Neliela izkustēšanās Cassandra 5.51 31:09 05:39 10.61 ir
07/10/17 Rudens smaržas Cassandra 18.65 1:43:35 05:33 10.80 ir
06/10/17 Vakara riksis Cassandra 10.90 1:01:37 05:39 10.61 ir
05/10/17 Biķernieku cilpas Cassandra 12.32 1:11:54 05:50 10.28 ir
04/10/17 Tāds kā paskrējiens Cassandra 9.40 56:51 06:02 9.92 ir
03/10/17 Vēl viens klibais Cassandra 4.50 27:42 06:09 9.75 ir
02/10/17 Paklunkurējiens Cassandra 3.10 20:02 06:27 9.28 ir
64.38
30/09/17 SKM 2017 Cassandra 80.00 12:14:44 09:11 6.53 ir
29/09/17 Pakustēšanās Cassandra 3.50 20:20 05:48 10.33 ir
28/09/17 Galvas pavēdināšana Cassandra 4.30 26:23 06:08 9.78 ir
27/09/17 Pirmslekciju riksis Cassandra 6.05 35:36 05:53 10.20 ir
26/09/17 Vakara ņiprais Cassandra 12.30 1:08:45 05:35 10.73 ir
25/09/17 Kedu testēšana Cassandra 8.20 45:38 05:33 10.78 ir
114.35
23/09/17 Siguldas pampaciņi Cassandra 16.00 1:51:17 06:57 8.63 ir
22/09/17 Rīts pirms lekcijas Cassandra 9.15 51:34 148 05:38 10.65 ir
20/09/17 Biķernieku cilpas Cassandra 16.22 1:36:16 05:56 10.11 ir
19/09/17 Vakara aplītis Cassandra 10.05 57:51 05:45 10.42 ir
18/09/17 Tumsa, lietus, peļķes Cassandra 5.55 33:38 06:03 9.90 ir
56.97
17/09/17 Valmiera. PB! Cassandra 42.20 3:47:56 05:24 11.11 ir
16/09/17 Rīta iekustēšanās Cassandra 3.05 17:36 05:46 10.40 ir
15/09/17 Rīta takas Cassandra 7.60 46:48 06:09 9.74 ir
14/09/17 Neliela izkustēšanās Cassandra 6.15 37:56 06:10 9.73 ir
13/09/17 Takas un bišķis stadiona Cassandra 10.52 1:01:02 05:48 10.34 ir
12/09/17 Vakara riksis Cassandra 11.92 1:08:01 05:42 10.52 ir
11/09/17 Takas un intervāli Cassandra 10.67 1:01:07 05:43 10.48 ir
92.11
09/09/17 Mežaparks un veloceliņš Cassandra 30.55 2:50:32 05:34 10.75 ir
08/09/17 Pakaļ krellītēm Cassandra 9.75 57:48 05:55 10.12 ir
07/09/17 Biķernieku aplītis Cassandra 8.66 49:19 05:41 10.54 ir
07/09/17 Rīta iekustēšanās Cassandra 4.25 25:52 06:05 9.86 ir
06/09/17 Stadions Cassandra 9.80 54:45 05:35 10.74 ir
06/09/17 Rīta takas pirms lekcijām Cassandra 5.90 35:36 06:02 9.94 ir
05/09/17 Vakara riksis Cassandra 13.15 1:14:21 05:39 10.61 ir
04/09/17 Biķernieku aplītis Cassandra 11.35 1:07:53 05:58 10.03 ir
93.41
03/09/17 Mežaparks Cassandra 24.01 2:14:37 05:36 10.70 ir
02/09/17 Alfas aplītis Cassandra 10.20 55:16 05:25 11.07 ir
01/09/17 Jaunā stadiona iemēģināšana Cassandra 10.16 53:57 05:18 11.30 ir
31/08/17 Pirms ballītes Cassandra 10.10 57:43 05:42 10.50 ir
30/08/17 Pēc dārza darbiem Cassandra 9.00 51:32 05:43 10.48 ir
29/08/17 Vakariņš Biķerniekos Cassandra 13.50 1:19:36 05:53 10.18 ir
28/08/17 Ciemos Cassandra 9.00 51:24 05:42 10.51 ir
28/08/17 Atpakaļ Biķerniekos Cassandra 6.40 37:22 05:50 10.28 ir
92.37
27/08/17 Atēnu promenāde Cassandra 8.55 49:08 05:44 10.44 ir
26/08/17 Paros beach Cassandra 8.00 49:16 06:09 9.74 ir
25/08/17 Naxos Cassandra 6.70 42:03 06:16 9.56 ir
24/08/17 Naxos beach Cassandra 5.00 31:10 06:14 9.63 ir
23/08/17 Kamari beach and ancient Thira Cassandra 6.20 39:02 06:17 9.53 ir
21/08/17 Pirms ceļa Cassandra 16.20 1:34:48 05:51 10.25 ir
50.65
20/08/17 Rīta iekustēšanās Cassandra 5.90 37:16 06:18 9.50 ir
19/08/17 Juglas takas Cassandra 25.55 2:41:31 06:19 9.49 ir
18/08/17 Pirms konča Cassandra 11.50 1:10:59 06:10 9.72 ir
17/08/17 Rīta taciņas Cassandra 5.50 33:28 06:05 9.86 ir
16/08/17 Uz māju Cassandra 10.03 59:38 05:56 10.09 ir
16/08/17 Pilsētā, kurā piedzimst vējš Cassandra 6.10 37:32 06:09 9.75 ir
14/08/17 Biķernieki tumsiņā Cassandra 15.30 1:31:38 05:59 10.02 ir
79.88
12/08/17 Starp lietiem Cassandra 10.05 58:35 05:49 10.29 ir
12/08/17 Sakarsuša meža takas Cassandra 6.00 37:36 06:16 9.57 ir
11/08/17 Dienvidnakts Cassandra 12.10 1:11:53 05:56 10.10 ir
10/08/17 Vakariņš Cassandra 5.11 30:35 05:59 10.03 ir
10/08/17 Rīta taciņas Cassandra 7.00 43:38 06:14 9.63 ir
08/08/17 Biķernieku aplītis Cassandra 11.21 1:09:31 154 06:12 9.68 ir
51.47
05/08/17 CET2017 Cassandra 114.00 15:58:34 08:24 7.14 ir
03/08/17 Rīta iekustēšanās Cassandra 4.00 24:20 06:05 9.86 ir
02/08/17 Rīta takas Cassandra 4.50 27:30 06:06 9.82 ir
31/07/17 Neliela izkustēšanās Cassandra 4.50 29:19 06:30 9.21 ir
127.00
29/07/17 Ziediņš, serpentīns un citas atrakcijas Cassandra 23.30 2:56:28 07:34 7.92 ir
28/07/17 Vasaras nakts burvība Cassandra 15.37 1:31:30 05:57 10.08 ir
27/07/17 Mazais riksītis Cassandra 7.50 46:20 06:10 9.71 ir
26/07/17 Tumsiņā pa Biķerniekiem Cassandra 11.05 1:08:13 06:10 9.72 ir
25/07/17 Pampaciņi Cassandra 13.16 1:25:06 06:27 9.28 ir
24/07/17 Mežā beidzot smaržo vasara Cassandra 10.51 1:02:08 157 05:54 10.15 ir
80.89
22/07/17 Jūra Cassandra 32.16 3:21:12 06:15 9.59 ir
20/07/17 Izgāztuves kalna iemēģināšana Cassandra 12.51 1:18:23 06:15 9.58 ir
19/07/17 Rītas takas Cassandra 3.50 22:29 06:25 9.34 ir
18/07/17 Takas un smilšu stadions Cassandra 13.35 1:22:31 158 06:10 9.71 ir
17/07/17 Biķernieku cilpas Cassandra 10.00 1:00:40 148 06:04 9.89 ir
17/07/17 Izmirciens Cassandra 6.10 37:47 06:11 9.69 ir
77.62
15/07/17 24H stafete - Jugla Cassandra 21.00 2:07:39 153 06:04 9.87 ir
14/07/17 Vakara riksītis Cassandra 6.80 41:00 06:01 9.95 ir
13/07/17 Mierīgs vakars Biķerniekos Cassandra 11.10 1:11:17 06:25 9.34 ir
12/07/17 Biķernieku aplītis Cassandra 10.10 1:04:12 06:21 9.44 ir
11/07/17 Kaut kas mazliet līdzīgs skriešanai Cassandra 10.10 1:03:55 06:19 9.48 ir
10/07/17 Liepziedu smaržas Cassandra 5.20 33:23 06:25 9.35 ir
64.30
08/07/17 Mazais riksītis Cassandra 5.85 37:01 06:19 9.48 ir
07/07/17 Neliela izkustēšanās Cassandra 5.10 33:23 06:32 9.17 ir
06/07/17 Smieklīgs mēģinājums pakustēties Cassandra 4.50 28:45 06:23 9.39 ir
15.45
02/07/17 Belfast  Cassandra 160.70 24:00:00 08:57 6.70 ir
28/06/17 Rīta iekustēšanās Cassandra 3.35 21:03 143 06:17 9.55 ir
27/06/17 Viegla izkustēšanās Cassandra 6.05 37:13 132 06:09 9.75 ir
26/06/17 Sastapšanās ar ežu ģimeni Cassandra 9.05 55:03 151 06:04 9.86 ir
179.15
24/06/17 Biķernieki Cassandra 15.00 1:27:54 05:51 10.24 ir
22/06/17 Gada īsākā nakts Cassandra 30.10 2:49:04 156 05:37 10.68 ir
22/06/17 Maza izkustēšanās Cassandra 2.45 14:36 05:57 10.07 ir
21/06/17 Galvas izvēdināšana Cassandra 10.50 1:05:25 06:13 9.63 ir
20/06/17 Viegla izkustēšanās Cassandra 9.03 55:07 06:06 9.83 ir
19/06/17 Recovery Cassandra 7.00 43:58 06:16 9.55 ir
74.08
18/06/17 Līdz jūrai Cassandra 36.52 3:38:44 159 05:59 10.02 ir
17/06/17 Akācijas Cassandra 12.10 1:12:38 139 06:00 10.00 ir
16/06/17 Vakara riksītis Cassandra 11.16 1:06:41 160 05:58 10.04 ir
15/06/17 Papmaciņi Cassandra 7.52 46:57 148 06:14 9.61 ir
14/06/17 Takas un 6 intervāli stadionā Cassandra 19.05 1:50:09 170 05:46 10.38 ir
13/06/17 Neomulīgs vakars Cassandra 10.02 1:00:25 144 06:01 9.95 ir
13/06/17 Rīts Cassandra 5.00 32:08 142 06:25 9.34 ir
12/06/17 Ap pusnakti Cassandra 8.30 49:48 05:59 10.00 ir
109.67
10/06/17 Berģu villas un maijpuķīšu pļavas Cassandra 36.41 3:40:06 150 06:02 9.93 ir
09/06/17 Vakara riksītis Cassandra 14.02 1:24:11 177 06:00 9.99 ir
08/06/17 Galvas pavēdināšana Cassandra 8.40 50:36 06:01 9.96 ir
07/06/17 Izmirciens Cassandra 11.02 1:05:32 162 05:56 10.09 ir
06/06/17 Maijpuķīšu pļavas Cassandra 15.10 1:29:09 174 05:54 10.16 ir
05/06/17 Vasaras nakts smaržas Cassandra 9.00 52:16 170 05:48 10.33 ir
05/06/17 Slapjš rīts Cassandra 3.03 18:54 162 06:14 9.62 ir
96.98
04/06/17 Visādas takas Cassandra 22.36 2:09:25 158 05:47 10.37 ir
03/06/17 Takas un daži intervāli stadionā Cassandra 13.50 1:17:17 145 05:43 10.48 ir
02/06/17 Teikas ceriņi Cassandra 10.51 1:01:14 05:49 10.30 ir
01/06/17 Brrrrriesmīgā vējā Cassandra 9.00 50:38 153 05:37 10.66 ir
01/06/17 Rīta iekustēšanās Cassandra 4.15 24:12 138 05:49 10.29 ir
31/05/17 Pēc lietus Cassandra 10.11 58:53 05:49 10.30 ir
30/05/17 Daži slinki intervāli jaunajos Cloudos Cassandra 13.70 1:19:54 156 05:49 10.29 ir
30/05/17 Rīta takas Cassandra 4.00 23:56 05:59 10.03 ir
29/05/17 Pīlādžziedi Cassandra 13.51 1:19:39 143 05:53 10.18 ir
100.84
27/05/17 Biķernieku cilpas Cassandra 31.00 3:03:58 159 05:56 10.11 ir
26/05/17 Takas un 5 intervāli stadionā Cassandra 14.31 1:21:32 142 05:41 10.53 ir
25/05/17 Vakariņš Biķerniekos Cassandra 16.00 1:37:43 06:06 9.82 ir
24/05/17 Bikernieki tumsiņā Cassandra 11.00 1:05:43 05:58 10.04 ir
23/05/17 Biķernieki Cassandra 12.50 1:11:44 144 05:44 10.46 ir
23/05/17 Rītas takas Cassandra 3.50 21:06 139 06:01 9.95 ir
22/05/17 Galvas pavēdināšana Cassandra 6.25 37:47 149 06:02 9.93 ir
94.56
20/05/17 Mežaparks Cassandra 30.16 2:55:00 153 05:48 10.34 ir
19/05/17 Ievas, ievas, ievas... Cassandra 15.37 1:31:47 167 05:58 10.05 ir
18/05/17 Neprātīgi smaržo ievas Cassandra 7.00 39:50 137 05:41 10.54 ir
18/05/17 Rīts Cassandra 5.10 29:49 05:50 10.26 ir
17/05/17 Ievziedi migliņā Cassandra 9.10 50:06 145 05:30 10.90 ir
16/05/17 Salzach kreisais krasts Cassandra 9.05 52:58 05:51 10.25 ir
15/05/17 Salzach labais krasts Cassandra 15.17 1:23:32 155 05:30 10.90 ir
90.95
14/05/17 Down the Salzach Cassandra 10.10 56:26 162 05:35 10.74 ir
14/05/17 Rose garden Cassandra 5.07 30:10 05:57 10.08 ir
13/05/17 Salzach Cassandra 12.95 1:16:20 05:53 10.18 ir
12/05/17 Mazliet kalni Cassandra 10.80 1:04:27 05:58 10.05 ir
12/05/17 Expotīcija pa Zalcburgu Cassandra 7.47 44:05 05:54 10.17 ir
11/05/17 Pirms ceļa Cassandra 6.57 39:36 06:01 9.95 ir
10/05/17 Vakariņš Biķerniekos Cassandra 10.12 58:50 05:48 10.32 ir
10/05/17 Rītas takas Cassandra 3.80 23:26 06:10 9.73 ir
09/05/17 Neplānots tempiņš (lai nenosaltu) Cassandra 9.01 48:41 05:24 11.10 ir
09/05/17 Rīta pampaciņi Cassandra 4.12 25:27 06:10 9.71 ir
08/05/17 Vakariņš Biķerniekos Cassandra 14.36 1:26:34 06:01 9.95 ir
94.37
06/05/17 Mežaparks un veloceliņš Cassandra 26.11 2:35:43 161 05:57 10.06 ir
05/05/17 Plūmes jau ziedos! Cassandra 18.10 1:46:07 163 05:51 10.23 ir
04/05/17 Smaržīgā mežā Cassandra 10.05 59:39 152 05:56 10.11 ir
04/05/17 Saulains rīts Cassandra 6.05 37:11 06:08 9.76 ir
03/05/17 No darbiņa pa Daugavmalu Cassandra 22.22 2:09:55 05:50 10.26 ir
02/05/17 Vakara riksītis Cassandra 9.00 53:19 05:55 10.13 ir
91.53
30/04/17 Biķernieku cilpas Cassandra 15.30 1:30:56 05:56 10.10 ir
29/04/17 Biķeru takas Cassandra 17.25 1:38:45 05:43 10.48 ir
28/04/17 CloudFlow testēšana Cassandra 8.30 50:17 06:03 9.90 ir
27/04/17 Biķernieku aplītis Cassandra 9.35 56:36 06:03 9.91 ir
27/04/17 Rītas takas Cassandra 3.85 24:03 06:14 9.60 ir
26/04/17 Biķernieku aplītis Cassandra 9.60 57:41 06:00 9.99 ir
26/04/17 Rīta pampaciņi Cassandra 3.70 23:04 06:14 9.62 ir
25/04/17 Lietus, tumsa, peļķes Cassandra 12.10 1:15:08 06:12 9.66 ir
24/04/17 Deglavkalns Cassandra 11.15 1:09:13 06:12 9.67 ir
90.60
23/04/17 Juglas meži Cassandra 28.06 2:52:40 06:09 9.75 ir
21/04/17 Biķernieki tumsiņā Cassandra 8.41 51:21 06:06 9.83 ir
21/04/17 Rītas takas Cassandra 3.50 22:34 06:26 9.31 ir
20/04/17 Galvas pavēdināšana Cassandra 6.25 38:51 06:12 9.65 ir
19/04/17 Tumsiņā pa Biķerniekiem Cassandra 10.00 1:00:56 06:05 9.85 ir
19/04/17 Rīta pampaciņi Cassandra 4.00 25:45 06:26 9.32 ir
18/04/17 Cilpas pa rajonu Cassandra 10.25 1:03:16 06:10 9.72 ir
17/04/17 Biķernieki un 5 intervāli stadionā Cassandra 22.11 2:09:25 05:51 10.25 ir
92.58
15/04/17 Biķernieku cilpas Cassandra 22.00 2:14:27 169 06:06 9.82 ir
14/04/17 Smilšu stadions un Šmerļa krusts Cassandra 26.01 2:43:08 143 06:16 9.57 ir
13/04/17 Alfas aplītis Cassandra 10.25 1:01:00 164 05:57 10.08 ir
13/04/17 Rīta iekustēšanās Cassandra 3.40 20:37 162 06:03 9.89 ir
12/04/17 Pa Atletikas banti Cassandra 8.00 39:35 04:56 12.13 ir
12/04/17 Rīta pampaciņi Cassandra 3.85 24:23 156 06:20 9.47 ir
11/04/17 Atkal ziema Cassandra 11.05 1:08:00 148 06:09 9.75 ir
10/04/17 Vējš matos un pavasara smaržas Cassandra 13.15 1:18:06 143 05:56 10.10 ir
97.71
08/04/17 Mēnesgaismā pa Biķerniekiem Cassandra 21.05 2:03:10 157 05:51 10.25 ir
07/04/17 Lietū Cassandra 10.15 58:11 153 05:43 10.47 ir
06/04/17 Patusnījiens pēc kūku pārēšanās Cassandra 4.55 28:21 138 06:13 9.63 ir
05/04/17 Biķernieku aplītis Cassandra 10.05 59:13 147 05:53 10.18 ir
05/04/17 Rītas takas Cassandra 4.65 29:36 140 06:21 9.43 ir
04/04/17 Mierīgs vakariņš Cassandra 9.25 56:21 139 06:05 9.85 ir
03/04/17 Alfas aplītis Cassandra 10.00 59:09 148 05:54 10.14 ir
03/04/17 Rītas takas Cassandra 4.20 26:31 135 06:18 9.50 ir
73.90
02/04/17 Meža smaržas Cassandra 6.35 39:12 151 06:10 9.72 ir
01/04/17 Rīta riksis Cassandra 8.35 50:42 162 06:04 9.88 ir
31/03/17 Pa banti Cassandra 7.00 35:10 05:01 11.94 ir
31/03/17 Rītas takas Cassandra 3.20 19:49 06:11 9.69 ir
30/03/17 Rīts Cassandra 2.20 13:07 05:57 10.06 ir
29/03/17 Galvas pavēdināšana Cassandra 9.00 55:14 06:08 9.78 ir
28/03/17 Viss joprojām slikti... Cassandra 7.20 45:22 06:18 9.52 ir
43.30
26/03/17 Beidzot brīvībā! Cassandra 14.30 1:24:23 150 05:54 10.17 ir
25/03/17 Biķernieki Cassandra 14.50 1:28:51 06:07 9.79 ir
24/03/17 Pavēss vakariņš Cassandra 10.25 1:02:06 06:03 9.90 ir
23/03/17 Vakara riksītis Cassandra 11.15 1:06:10 152 05:56 10.11 ir
22/03/17 Stīvais patipinājiens Cassandra 6.70 42:12 06:17 9.53 ir
21/03/17 Beidzot mežā! Cassandra 11.50 1:09:38 06:03 9.91 ir
20/03/17 Rudenīgs lietus Cassandra 12.60 1:14:53 05:56 10.10 ir
81.00
19/03/17 Ciemos uz slimnīcu... Cassandra 13.40 1:16:37 05:43 10.49 ir
17/03/17 Atvadoties no kalniem Cassandra 5.50 34:15 06:13 9.64 ir
15/03/17 Mittelberg-Kanzelwand Cassandra 10.15 1:04:42 06:22 9.41 ir
13/03/17 Mittelbergas taciņas Cassandra 6.00 38:15 06:22 9.41 ir
35.05
12/03/17 Kleinwalsertāles pakalni Cassandra 7.55 47:35 06:18 9.52 ir
10/03/17 Alfas aplītis Cassandra 11.05 1:03:52 05:46 10.38 ir
10/03/17 Rīts Cassandra 3.80 22:13 05:50 10.26 ir
09/03/17 Alfas aplītis Cassandra 10.45 58:48 05:37 10.66 ir
09/03/17 Rīts Cassandra 3.20 19:30 06:05 9.85 ir
08/03/17 Ziemīgs vakariņš Cassandra 10.65 1:01:47 05:48 10.34 ir
07/03/17 Niknais pa banti Cassandra 10.00 48:35 04:51 12.35 ir
07/03/17 Ziemīgs rīts Cassandra 3.17 19:48 06:14 9.61 ir
06/03/17 Putenī Cassandra 11.00 1:03:28 05:46 10.40 ir
06/03/17 Rīta riksis Cassandra 3.10 18:33 05:59 10.03 ir
73.97
05/03/17 Iekustēšanās Cassandra 3.65 22:33 06:10 9.71 ir
04/03/17 Tumsiņā gar jūru Cassandra 33.00 3:15:55 05:56 10.11 ir
03/03/17 Mierīgs vakariņš Cassandra 10.00 59:28 05:56 10.09 ir
03/03/17 Rīta riksis Cassandra 3.10 18:27 05:57 10.08 ir
02/03/17 Ap pusnakti Cassandra 10.65 1:03:20 05:56 10.09 ir
01/03/17 Alfas aplītis Cassandra 11.20 1:04:53 05:47 10.36 ir
01/03/17 Rīts Cassandra 3.20 19:41 06:09 9.75 ir
28/02/17 Alfas aplītis Cassandra 10.00 57:12 05:43 10.49 ir
28/02/17 Joprojām asfalts Cassandra 3.05 18:42 06:07 9.79 ir
27/02/17 Vakara riksītis Cassandra 10.15 58:35 05:46 10.40 ir
27/02/17 Slidens Cassandra 3.10 19:42 06:21 9.44 ir
101.10
26/02/17 Vakara pastaiga Cassandra 4.17 24:22 05:50 10.27 ir
25/02/17 Saule, vējš un putenis Cassandra 16.30 1:40:38 06:10 9.72 ir
24/02/17 Mellā bante Cassandra 10.00 49:05 04:54 12.22 ir
24/02/17 Rīts Cassandra 3.10 18:27 05:57 10.08 ir
23/02/17 Ledus parastais un mellais Cassandra 10.20 58:51 05:46 10.40 ir
23/02/17 Rīta riksis Cassandra 3.15 19:18 06:07 9.79 ir
22/02/17 Šļura un kupenas Cassandra 10.00 1:02:40 06:16 9.57 ir
22/02/17 Rīta riksis Cassandra 3.00 18:08 06:02 9.93 ir
21/02/17 Saimnieks suni ārā nedzen, bet kas un kādēļ dzina mani??? Cassandra 10.60 1:05:08 06:08 9.76 ir
20/02/17 Pa mello banti Cassandra 10.00 49:25 04:56 12.14 ir
20/02/17 Rīta riksis Cassandra 3.50 20:50 05:57 10.08 ir
84.02
18/02/17 Nereāli skaists saulriets Cassandra 30.05 3:04:35 06:08 9.77 ir
17/02/17 Ņiprais Cassandra 12.10 1:07:03 05:32 10.83 ir
17/02/17 Rīta iekustēšanās Cassandra 4.45 27:36 06:12 9.67 ir
16/02/17 Alfas aplītis Cassandra 11.20 1:05:21 05:50 10.28 ir
15/02/17 Alfas aplītis Cassandra 10.40 59:24 05:42 10.51 ir
15/02/17 Rīta riksis Cassandra 3.10 18:29 05:57 10.06 ir
14/02/17 Galvas pavēdināšana Cassandra 10.20 1:00:01 05:53 10.20 ir
13/02/17 Alfas aplītis Cassandra 13.10 1:16:47 05:51 10.24 ir
94.60
11/02/17 Garajam nepietika laika Cassandra 17.10 1:46:03 06:12 9.67 ir
10/02/17 Pa mello banti Cassandra 9.25 45:00 04:51 12.33 ir
10/02/17 Rīta iekustēšanās Cassandra 3.10 18:22 05:55 10.13 ir
09/02/17 Alfas aplītis Cassandra 13.00 1:17:49 05:59 10.02 ir
08/02/17 Šmerļa veloceliņš Cassandra 14.12 1:25:04 06:01 9.96 ir
07/02/17 Briesmīgaukstais Cassandra 9.10 54:15 05:57 10.06 ir
06/02/17 Pirms iestājusies ziema Cassandra 10.50 1:03:31 06:02 9.92 ir
06/02/17 Rīta riksis Cassandra 7.15 42:35 05:57 10.07 ir
83.32
04/02/17 Vakara pastaiga līdz Mangaļiem Cassandra 25.15 2:34:21 06:08 9.78 ir
03/02/17 Pa mello banti Cassandra 10.00 49:15 04:55 12.18 ir
03/02/17 Rīts Cassandra 3.00 17:51 05:57 10.08 ir
02/02/17 Vakara riksītis Cassandra 12.80 1:15:14 05:52 10.21 ir
01/02/17 Rīta paskrējiens Cassandra 5.15 31:43 127 06:09 9.74 ir
01/02/17 Vakara riksis ar tempiņiem Cassandra 10.05 57:37 143 05:43 10.47 ir
31/01/17 Alfas aplītis Cassandra 10.05 59:44 05:56 10.09 ir
31/01/17 Rīta iekustēšanās Cassandra 3.10 18:50 06:04 9.88 ir
30/01/17 Šmerļa aplītis ar dažiem intervāliem Cassandra 12.10 1:11:54 05:56 10.10 ir
91.40
28/01/17 Vecāķi Cassandra 25.20 2:36:06 06:11 9.69 ir
27/01/17 Pa banti. Traki grūti bija. Cassandra 10.00 49:30 04:57 12.12 ir
27/01/17 Rīta iekustēšanās Cassandra 4.00 24:03 06:00 9.98 ir
26/01/17 Slidenās ietves Cassandra 9.30 56:33 06:04 9.87
26/01/17 Līdz Garminveicim Cassandra 4.00 24:19 06:04 9.87 ir
25/01/17 Visādas cilpas Cassandra 7.70 44:48 05:49 10.31 ir
24/01/17 Vakara slidenais Cassandra 11.20 1:05:54 05:53 10.20 ir
23/01/17 Brīvības ielas veloceliņš Cassandra 14.10 1:22:18 05:50 10.28 ir
85.50
22/01/17 Drusciņš pēc kalna Cassandra 5.55 32:58 05:56 10.10 ir
21/01/17 Brrrrriesmīgi slidens Cassandra 16.25 1:45:05 06:28 9.28 ir
19/01/17 Pa mello banti Cassandra 10.00 48:45 04:52 12.31 ir
19/01/17 Rīta takas Cassandra 3.85 23:05 05:59 10.01 ir
18/01/17 Naksnīgais Biķerniekos Cassandra 12.00 1:13:48 06:09 9.76 ir
17/01/17 Vakara riksis Cassandra 10.10 1:00:08 05:57 10.08 ir
16/01/17 Ziemīga nakts Cassandra 9.25 55:40 06:01 9.97 ir
67.00
14/01/17 Ziemīgais pa Biķeriem Cassandra 14.50 1:30:04 06:12 9.66 ir
13/01/17 Bridiens pa mīksto sniegu Cassandra 5.50 33:15 06:02 9.92 ir
12/01/17 Naksnīgais Biķerniekos Cassandra 12.00 1:16:58 06:24 9.35 ir
11/01/17 Rīta slidenās taciņas Cassandra 3.80 22:50 06:00 9.99 ir
10/01/17 Atpakaļ sniegos Cassandra 8.20 48:20 05:53 10.18 ir
09/01/17 Rīta riksis gar kanālu Cassandra 8.10 46:30 05:44 10.45 ir
52.10
08/01/17 Pa mello banti Cassandra 5.17 25:00 04:50 12.41 ir
08/01/17 Migliņā gar kanālu Cassandra 7.10 41:12 05:48 10.34 ir
07/01/17 Viesnīcas zālītē Cassandra 3.50 17:10 04:54 12.23 ir
06/01/17 Garmins nosala pirmais Cassandra 5.35 31:30 05:53 10.19 ir
05/01/17 Ziemīgs vakariņš Cassandra 8.00 46:38 05:49 10.29 ir
04/01/17 No darbiņa pa kupenām Cassandra 14.05 1:26:36 06:09 9.73 ir
03/01/17 Kupenas Cassandra 9.10 53:03 05:49 10.29 ir
02/01/17 Sniedziņš Cassandra 8.00 47:17 05:54 10.15 ir
02/01/17 Rīta riksis Cassandra 3.10 17:53 05:46 10.40 ir
63.37
01/01/17 Pirmais! Cassandra 21.10 2:05:14 05:56 10.11 ir
31/12/16 Noslēdzošais Cassandra 11.30 1:06:38 05:53 10.18 ir
30/12/16 Alfas aplītis Cassandra 9.70 56:06 05:47 10.37 ir
29/12/16 Pa mello banti Cassandra 10.00 47:52 04:47 12.53 ir
29/12/16 Rīts Cassandra 2.65 15:50 05:58 10.04 ir
28/12/16 Alfas aplītis Cassandra 12.45 1:11:53 05:46 10.39 ir
27/12/16 Slapjdraņķis Cassandra 11.47 1:08:48 05:59 10.00 ir
26/12/16 Vakariņš Cassandra 7.01 40:33 05:47 10.37 ir
26/12/16 Biķeru takas Cassandra 8.10 50:20 06:12 9.66 ir
93.78
25/12/16 Mežaparks Cassandra 17.20 1:37:55 05:41 10.54 ir
23/12/16 Skumjš vakars Cassandra 17.10 1:39:42 05:49 10.29 ir
23/12/16 Rīta taciņas Cassandra 4.25 26:33 06:14 9.60 ir
22/12/16 Kad pārēsta jēga Cassandra 5.10 30:14 05:55 10.12 ir
22/12/16 Agrais rīts Cassandra 4.25 25:19 05:57 10.07 ir
21/12/16 Biķeri no rīta Cassandra 6.65 40:49 06:08 9.78 ir
21/12/16 Ap pusnakti Cassandra 7.26 45:04 06:12 9.67 ir
20/12/16 Slapjas meža taciņas Cassandra 4.00 24:11 06:02 9.92 ir
19/12/16 Galvas pavēdināšana Cassandra 8.00 48:07 06:00 9.98 ir
73.81
18/12/16 Svētdienas vakara maziņais Cassandra 5.30 32:21 06:06 9.83 ir
17/12/16 Uz veici Cassandra 3.65 21:31 05:53 10.18 ir
17/12/16 Pelēks rīts Cassandra 6.20 37:16 06:00 9.98 ir
16/12/16 Ledus un šļura Cassandra 10.16 59:33 05:51 10.24 ir
16/12/16 Rīta iekustēšanās Cassandra 3.30 19:57 06:02 9.92 ir
15/12/16 Slidināšanās Cassandra 4.90 30:07 06:08 9.76 ir
14/12/16 Slidenais Cassandra 10.05 1:02:22 06:12 9.67 ir
14/12/16 Apsnigušas taciņas Cassandra 6.45 42:25 06:34 9.12 ir
13/12/16 Vakara slidināšanās Cassandra 8.75 52:40 06:01 9.97 ir
12/12/16 Vakara riksītis Cassandra 9.10 53:22 05:51 10.23 ir
12/12/16 Rīta iekustēšanās Cassandra 3.00 18:28 06:09 9.75 ir
70.86
11/12/16 Taciņas Cassandra 8.21 47:04 05:43 10.47 ir
10/12/16 Mežiņš Cassandra 11.25 1:07:38 06:00 9.98 ir
09/12/16 Alfas aplītis Cassandra 10.10 1:01:18 06:04 9.89 ir
08/12/16 Zālītē Cassandra 8.10 40:00 04:56 12.15 ir
07/12/16 Rīta slidināšanās Cassandra 4.50 28:03 06:14 9.63 ir
06/12/16 Alfas aplītis Cassandra 10.00 1:00:50 06:05 9.86 ir
06/12/16 Rīta iekustēšanās Cassandra 3.00 18:45 06:15 9.60 ir
05/12/16 Es slīdēju pa slidotavu... Cassandra 8.00 49:15 06:09 9.75 ir
63.16
04/12/16 Uz veici Cassandra 3.55 21:11 05:58 10.06 ir
03/12/16 Saulains rīts Cassandra 8.15 51:31 06:19 9.49 ir
02/12/16 Zālītē Cassandra 8.00 38:55 04:51 12.33 ir
02/12/16 Rīta kupenas Cassandra 5.50 34:25 06:15 9.59 ir
01/12/16 Vakariņš Cassandra 8.00 49:23 06:10 9.72 ir
30/11/16 Galvas pavēdināšana Cassandra 8.00 49:12 06:09 9.76 ir
29/11/16 Bišķinš Cassandra 4.10 25:04 06:06 9.81 ir
28/11/16 Sāp, draņķis, joprojām :( Cassandra 4.75 28:44 06:02 9.92 ir
50.05
26/11/16 Zālīte Cassandra 6.10 30:00 04:55 12.20 ir
25/11/16 Galvas pavēdināšana Cassandra 2.50 15:20 06:08 9.78 ir
24/11/16 Zālīte Cassandra 8.00 40:00 05:00 12.00 ir
22/11/16 Bišķiņš no rīta Cassandra 2.80 17:30 06:15 9.60 ir
21/11/16 Alfas aplītis Cassandra 9.55 56:16 05:53 10.18 ir
21/11/16 Rīta taciņas Cassandra 3.55 21:15 05:59 10.02 ir
32.50
20/11/16 Farewell to the Eternal City Cassandra 4.70 30:13 06:25 9.33 ir
18/11/16 Fantastisks dienvidu vakariņš Cassandra 9.00 55:34 06:10 9.72 ir
17/11/16 Palmas, palmas, palmas... Cassandra 6.40 38:10 05:57 10.06 ir
17/11/16 Torlonia parciņš Cassandra 6.00 38:21 06:23 9.39 ir
17/11/16 The immortal city Cassandra 10.55 1:05:50 06:14 9.62 ir
15/11/16 Sniegaputra Cassandra 12.00 1:14:20 06:11 9.69 ir
14/11/16 Lietus, peļķes, šļura... Cassandra 10.26 1:03:22 06:10 9.71 ir
14/11/16 Rīta taciņas Cassandra 3.85 23:44 06:09 9.73 ir
62.76
13/11/16 Sniegotas taciņas Cassandra 9.55 58:17 06:06 9.83 ir
12/11/16 Rīts mežā Cassandra 5.00 32:21 06:28 9.27 ir
11/11/16 Pa mello banti Cassandra 8.15 40:00 04:54 12.23 ir
11/11/16 Rīta taciņas Cassandra 4.25 25:50 163 06:04 9.87 ir
10/11/16 Piesnigušās taciņas Cassandra 11.10 1:05:27 153 05:53 10.18 ir
09/11/16 Buried under the work Cassandra 5.20 30:07 05:47 10.36 ir
08/11/16 Ziemīgais vakariņš Cassandra 7.50 42:20 05:38 10.63 ir
07/11/16 Piesnigušas meža takas Cassandra 13.10 1:23:19 152 06:21 9.43 ir
63.85
06/11/16 Kupenas Cassandra 9.25 55:41 157 06:01 9.97 ir
04/11/16 No darba pa šļuru un kupenām Cassandra 14.00 1:27:08 152 06:13 9.64 ir
03/11/16 Sniedziņš Cassandra 5.35 32:10 146 06:00 9.98 ir
02/11/16 Biķernieki tumsiņā Cassandra 9.50 57:49 149 06:05 9.86 ir
01/11/16 Pa mello banti Cassandra 8.00 39:15 04:54 12.23 ir
01/11/16 Rīta taciņas Cassandra 4.70 28:40 06:05 9.84 ir
31/10/16 Vakara riksīc Cassandra 8.30 50:38 142 06:06 9.84 ir
59.10
30/10/16 Brīdis brīvības Cassandra 9.05 51:18 153 05:40 10.58 ir
29/10/16 Pačabināšanās pa zeltainajām lapām Cassandra 9.00 54:03 145 06:00 9.99 ir
28/10/16 Lietus, tumsa, peļķes... Cassandra 6.35 38:50 06:06 9.81 ir
27/10/16 Drusciņ svaiga gaisa Cassandra 4.45 27:57 141 06:16 9.55 ir
26/10/16 Šķiet, ka sen nav skriets... Cassandra 5.50 35:04 148 06:22 9.41 ir
34.35
23/10/16 European 24H championship Cassandra 150.38 21:40:00 08:38 6.94 ir
20/10/16 Rīta iekustēšanās Cassandra 3.25 20:03 135 06:10 9.73 ir
19/10/16 Vakara riksītis Cassandra 6.00 37:26 150 06:14 9.62 ir
19/10/16 Pirmslekciju paskrējiens Cassandra 8.00 53:36 137 06:42 8.96 ir
18/10/16 Viegla izkustēšanās Cassandra 9.30 56:49 141 06:06 9.82 ir
17/10/16 Bišķiņš Cassandra 4.95 30:30 135 06:09 9.74 ir
181.88
15/10/16 Takas un pampaciņi Cassandra 21.00 2:15:40 152 06:27 9.29 ir
14/10/16 Pa banti Cassandra 8.15 40:00 04:54 12.23 ir
14/10/16 Rīts Cassandra 3.45 21:26 148 06:12 9.66 ir
13/10/16 Maziņais Cassandra 5.10 30:40 06:00 9.98 ir
12/10/16 Pirms lekcijām Cassandra 12.05 1:12:57 156 06:03 9.91 ir
11/10/16 Pa mello banti Cassandra 6.00 28:43 04:47 12.54 ir
11/10/16 Rīta iekustēšanās Cassandra 4.00 25:29 150 06:22 9.42 ir
10/10/16 Rīta taciņas Cassandra 3.80 24:32 138 06:27 9.29 ir
63.55
09/10/16 Tāds kā treniņš stadionā Cassandra 23.40 2:11:28 156 05:37 10.68 ir
08/10/16 Izmirciens Cassandra 11.30 1:07:10 152 05:56 10.09 ir
07/10/16 Rīta pakustēšanās Cassandra 3.60 23:19 133 06:28 9.26 ir
06/10/16 Mierīgs vakariņš Cassandra 8.60 52:46 154 06:08 9.78 ir
06/10/16 Intervāliņi skolas stadionā Cassandra 4.05 21:43 148 05:21 11.19 ir
05/10/16 Drusku tempiņi Cassandra 11.62 1:02:59 05:25 11.07 ir
05/10/16 Rīta riksis Cassandra 5.35 33:53 141 06:20 9.47 ir
04/10/16 Rīta takas Cassandra 4.00 25:39 143 06:24 9.36 ir
03/10/16 Rudenīgs vakariņš Cassandra 9.40 55:24 153 05:53 10.18 ir
03/10/16 Rīta taciņas Cassandra 3.52 22:03 143 06:15 9.58 ir
84.84
01/10/16 Saulriets, mīkstas smiltis un maldīšanās tumsā Cassandra 34.96 3:45:36 154 06:27 9.30 ir
30/09/16 Biķernieku aplīši Cassandra 10.00 1:01:13 150 06:07 9.80 ir
30/09/16 Rīts pirms lekcijām Cassandra 5.15 32:42 147 06:20 9.45 ir
29/09/16 No darbiņa Cassandra 14.35 1:26:33 137 06:01 9.95 ir
28/09/16 Lietains vakariņš Cassandra 9.95 1:00:25 06:04 9.88 ir
27/09/16 Naksnīgais Biķerniekos Cassandra 10.03 1:00:00 145 05:58 10.03 ir
27/09/16 Rīta taciņas Cassandra 3.85 25:19 143 06:34 9.12 ir
26/09/16 Alfas aplītis Cassandra 10.00 1:00:59 144 06:05 9.84 ir
26/09/16 Rīta iekustēšanās Cassandra 3.00 17:53 156 05:57 10.07 ir
101.29
25/09/16 Vakariņš pēc dārza darbiem Cassandra 11.00 1:05:10 152 05:55 10.13 ir
24/09/16 Slinkais Cassandra 11.65 1:10:09 153 06:01 9.96 ir
23/09/16 Vakara mierīgais Cassandra 5.65 34:49 144 06:09 9.74 ir
23/09/16 Rīta riksis Cassandra 6.45 42:37 146 06:36 9.08 ir
22/09/16 Spocīgais apgaismotā Biķernieku trasē Cassandra 10.15 1:00:41 145 05:58 10.04 ir
22/09/16 Rīta taciņas Cassandra 3.42 22:13 137 06:29 9.24 ir
21/09/16 Vēlais rīts Cassandra 8.13 49:57 145 06:08 9.77 ir
20/09/16 Galvas pavēdināšana Cassandra 6.30 38:31 136 06:06 9.81 ir
19/09/16 Recoverijs Cassandra 4.55 28:50 130 06:20 9.47 ir
67.30
18/09/16 Valmieras maratons Cassandra 42.20 3:58:55 165 05:39 10.60 ir
17/09/16 Rīta iekustēšanās Cassandra 3.45 20:30 149 05:56 10.10 ir
16/09/16 Rīta riksis Cassandra 6.53 38:20 125 05:52 10.22 ir
15/09/16 Vakara riksis Cassandra 5.40 29:40 153 05:29 10.92 ir
15/09/16 Rīta iekustēšanās Cassandra 3.61 21:00 146 05:49 10.31 ir
14/09/16 Mierīgais pēc lekcijām Cassandra 6.26 39:46 154 06:21 9.45 ir
14/09/16 Intervāliņi skolas stadionā Cassandra 4.00 22:55 155 05:43 10.47 ir
13/09/16 Biķernieki tumsiņā Cassandra 10.70 1:05:46 157 06:08 9.76 ir
12/09/16 Galvas pavēdināšana Cassandra 7.90 48:03 154 06:04 9.86 ir
90.05
10/09/16 Tāds kā treniņš stadionā Cassandra 22.25 2:04:30 162 05:35 10.72 ir
09/09/16 Vakariņš Biķerniekos Cassandra 10.20 59:54 151 05:52 10.22 ir
09/09/16 Agrs rīts Cassandra 3.55 22:33 147 06:21 9.45 ir
08/09/16 Bišķiņš svaiga gaisa Cassandra 4.56 27:28 142 06:01 9.96 ir
08/09/16 Rīta paskrējiens Cassandra 6.40 40:46 145 06:22 9.42 ir
07/09/16 Vakara mieriņam Cassandra 10.10 1:01:55 145 06:07 9.79 ir
07/09/16 Taciņas pirms lekcijām Cassandra 5.60 36:42 139 06:33 9.16 ir
06/09/16 No darbiņa Cassandra 14.15 1:24:51 143 05:59 10.01 ir
05/09/16 Mierīgs vakariņš Cassandra 10.10 1:02:10 150 06:09 9.75 ir
05/09/16 Rīta taciņas Cassandra 3.60 23:03 139 06:24 9.37 ir
90.51
03/09/16 Meža smaržas Cassandra 13.10 1:21:20 159 06:12 9.66 ir
02/09/16 Vakara riksis līdz stadionam Cassandra 13.05 1:13:05 153 05:36 10.71 ir
02/09/16 Skolas stadiona aplīši Cassandra 4.00 23:00 140 05:45 10.43 ir
01/09/16 Joprojām vasara Cassandra 11.05 1:04:22 150 05:49 10.30 ir
01/09/16 Rīta taciņas Cassandra 5.00 32:24 140 06:28 9.26 ir
31/08/16 Vakara izkustēšanās Cassandra 7.55 46:33 138 06:09 9.73 ir
30/08/16 Vakara mierīgais Cassandra 10.00 1:00:33 139 06:03 9.91 ir
30/08/16 Rīta taciņas Cassandra 4.00 25:37 143 06:24 9.37 ir
67.75
27/08/16 Baspēdu ultriņa Cassandra 53.00 5:34:03 165 06:18 9.52 ir
26/08/16 Iekustēšanās Cassandra 5.70 35:26 142 06:12 9.65 ir
24/08/16 Rīta paskrējiens Cassandra 8.20 51:51 06:19 9.49 ir
23/08/16 Vakara ņiprais Cassandra 8.00 45:00 152 05:37 10.67 ir
23/08/16 Rīta takas Cassandra 7.00 45:54 143 06:33 9.15 ir
22/08/16 Rīta pampaciņi Cassandra 4.85 31:33 146 06:30 9.22 ir
86.75
21/08/16 Dikti jauks vasaras vakars Cassandra 4.55 29:10 142 06:24 9.36 ir
20/08/16 Ravenu testēšana mīkstās smiltīs, kas izvērtās par baspēdošanu Cassandra 24.10 2:34:36 150 06:24 9.35 ir
19/08/16 Pampaki un itervāli jaunajos Raven Boostos Cassandra 10.38 1:03:59 148 06:09 9.73 ir
18/08/16 Rīta taciņas Cassandra 4.00 24:36 136 06:09 9.76 ir
17/08/16 Pēc lietiem Cassandra 10.11 59:34 137 05:53 10.18 ir
16/08/16 Šmerļa pampaciņi pirms lietus sezonas iestāšanās Cassandra 13.30 1:23:37 150 06:17 9.54 ir
15/08/16 Vakara fiksais Cassandra 10.05 56:06 146 05:34 10.75 ir
15/08/16 Rīta takas Cassandra 5.05 32:27 118 06:25 9.34 ir
81.54
13/08/16 Gar jūru Cassandra 25.10 2:23:00 158 05:41 10.53 ir
12/08/16 Pirms bekošanas Cassandra 4.00 25:21 139 06:20 9.47 ir
11/08/16 Biķernieku aplīši ar intervāliem Cassandra 10.67 1:03:21 150 05:56 10.11 ir
11/08/16 Rīta taciņas Cassandra 5.71 37:35 142 06:34 9.12 ir
10/08/16 Fiksais uz veici Cassandra 4.60 24:30 155 05:19 11.27 ir
10/08/16 Rīta takas Cassandra 11.00 1:08:45 143 06:15 9.60 ir
61.08
06/08/16 CET Cassandra 80.00 10:28:53 151 07:51 7.63 ir
05/08/16 Rīta iekustēšanās Cassandra 8.10 52:26 147 06:28 9.27 ir
04/08/16 PēcSubīša uz servisu Cassandra 3.50 20:50 05:57 10.08 ir
02/08/16 Izmirciens pie Nirzas ezera Cassandra 12.60 1:15:59 146 06:01 9.95 ir
104.20
31/07/16 Recoverijs Cassandra 5.50 34:38 137 06:17 9.53 ir
30/07/16 Talsu buks Cassandra 28.78 3:12:46 169 06:41 8.96 ir
28/07/16 Takas un pampaciņi Cassandra 9.25 1:00:20 151 06:31 9.20 ir
27/07/16 Rīta intervāli skolas stadionā Cassandra 5.35 30:40 157 05:43 10.47 ir
26/07/16 Pampaciņi Cassandra 5.87 39:47 152 06:46 8.85 ir
25/07/16 No darba ar līkumiņu Cassandra 22.88 2:24:42 144 06:19 9.49 ir
77.63
22/07/16 Šmerļa pampaciņi un Juglas ezers Cassandra 33.10 3:44:42 06:47 8.84 ir
21/07/16 Biķeru takas Cassandra 8.33 49:36 05:57 10.08 ir
20/07/16 Vakara riksis Biķerniekos Cassandra 9.20 57:05 06:12 9.67 ir
20/07/16 Intervāliņi skolas stadionā Cassandra 5.00 27:55 05:35 10.75 ir
19/07/16 Rīts Biķerniekos Cassandra 11.50 1:10:03 06:05 9.85 ir
18/07/16 Jauno Boostu testēšana Cassandra 11.00 1:06:48 06:04 9.88 ir
78.13
16/07/16 Kamieļa testēšana Cassandra 39.40 4:20:00 06:35 9.09 ir
15/07/16 Rīta takas Cassandra 3.50 20:45 05:55 10.12 ir
14/07/16 Vakariņš Biķerniekos Cassandra 10.15 1:02:15 06:07 9.78 ir
14/07/16 Rīta taciņas Cassandra 3.30 20:08 06:06 9.83 ir
13/07/16 Atkal savā mežā Cassandra 9.60 56:30 05:53 10.19 ir
11/07/16 Viesnīcā pa mello banti Cassandra 10.05 50:00 04:58 12.06 ir
76.00
10/07/16 The ugliest town in UK Cassandra 11.35 1:07:50 05:58 10.04 ir
09/07/16 Gar kanālu. Te var vampīrfilmas uzņemt. Cassandra 10.00 59:50 05:59 10.03 ir
09/07/16 Lietaina rīta paskrējiens pa banti Cassandra 4.50 23:15 05:10 11.61 ir
08/07/16 Ekskursija pa Mančesteru Cassandra 10.50 1:03:15 06:01 9.96 ir
07/07/16 Biķernieku aplīši Cassandra 12.70 1:15:58 05:58 10.03 ir
07/07/16 Rīta taciņas Cassandra 3.30 20:10 06:06 9.82 ir
06/07/16 Lietutiņā Cassandra 8.35 49:20 05:54 10.16 ir
05/07/16 Tādi kā intervāliņi Cassandra 13.50 1:18:58 05:50 10.26 ir
04/07/16 Vakara riksis Biķerniekos Cassandra 10.25 1:02:15 06:04 9.88 ir
84.45
03/07/16 Beidzot brīvībā Cassandra 21.60 2:11:08 06:04 9.88 ir
02/07/16 Bišķiņš pa stadionu Cassandra 3.30 17:50 05:24 11.10 ir
01/07/16 Pēc lietus kūpošā mežā Cassandra 11.00 1:06:40 06:03 9.90 ir
30/06/16 Vasaras vakarņš Cassandra 6.57 39:41 06:02 9.93 ir
30/06/16 Meža riksis Cassandra 4.50 28:33 06:20 9.46 ir
29/06/16 No darbiņa Cassandra 14.00 1:27:19 06:14 9.62 ir
28/06/16 Vakariņš Biķerniekos Cassandra 10.55 1:03:50 06:03 9.92 ir
27/06/16 Galvas pavēdināšana Cassandra 6.50 38:40 05:56 10.09 ir
78.02
26/06/16 Vasaras vakara smaržas Cassandra 7.05 45:06 06:23 9.38 ir
26/06/16 Pārkarsušā mežā Cassandra 6.70 40:11 05:59 10.00 ir
22/06/16 Īsākās nakts paskrējiens Cassandra 41.16 3:59:38 05:49 10.31 ir
21/06/16 Pauzīte pirms Īsākās nakts Cassandra 2.50 15:10 06:04 9.89 ir
20/06/16 Fantastiski smaržīgs mežs Cassandra 7.53 44:35 05:55 10.13 ir
20/06/16 Rīta takas Cassandra 7.55 44:50 05:56 10.10 ir
72.49
19/06/16 Rīts mežā Cassandra 6.15 37:09 06:02 9.93 ir
18/06/16 Rīta riksis gar kanālu Cassandra 4.00 24:45 06:11 9.70 ir
17/06/16 Promenāde, liepas un Japāņu dārzi Cassandra 11.50 1:06:36 05:47 10.36 ir
16/06/16 Basilica of the Sacred heart with Carlos Cassandra 8.70 47:30 05:27 10.99 ir
15/06/16 de Laeken ar Carlosu Cassandra 16.25 1:29:40 05:31 10.87 ir
14/06/16 Notre Dame de Laeken un Japāņu dārzi Cassandra 15.00 1:27:40 05:50 10.27 ir
13/06/16 Bišķiņš gar Briseles kanālu Cassandra 8.35 46:20 05:32 10.81 ir
69.95
12/06/16 Pa mello banti Cassandra 5.05 25:00 04:57 12.12 ir
12/06/16 Rīts mežā Cassandra 6.05 37:46 06:14 9.61 ir
11/06/16 ERAF-vājprāta noslēgums Cassandra 8.00 46:50 05:51 10.25 ir
10/06/16 Rīta riksis Cassandra 3.50 20:40 05:54 10.16 ir
09/06/16 Dzīvības uzturēšana Cassandra 5.50 32:10 05:50 10.26 ir
08/06/16 Pēc lietus Cassandra 9.10 54:07 05:56 10.09 ir
07/06/16 Bišķiņš pa Biķerniekiem Cassandra 8.50 50:35 05:57 10.08 ir
06/06/16 Galvas pavēdināšana Cassandra 10.30 1:00:15 05:50 10.26 ir
56.00
05/06/16 Mazliet svaiga gaisa Cassandra 6.55 40:11 06:08 9.78 ir
04/06/16 Vējains vakariņš Cassandra 8.25 49:19 05:58 10.04 ir
04/06/16 Rīta riksis Cassandra 6.50 40:19 06:12 9.67 ir
03/06/16 Pārkarsušās galvas pavēdināšana Cassandra 12.50 1:14:50 05:59 10.02 ir
02/06/16 Biķernieku aplīši Cassandra 13.20 1:18:20 05:56 10.11 ir
01/06/16 Vasaras nakts paskrējiens Cassandra 10.50 1:05:10 06:12 9.67 ir
31/05/16 Akācijas Cassandra 10.25 1:00:20 05:53 10.19 ir
30/05/16 Vasaras vakara smaržas Cassandra 13.30 1:16:03 05:43 10.49 ir
81.05
28/05/16 Maijpuķīšu pļavas Cassandra 12.46 1:11:15 05:43 10.49 ir
28/05/16 Takas un pampaciņi Cassandra 4.80 29:30 06:08 9.76 ir
27/05/16 Vasaras nakts paskrējiens Cassandra 8.00 47:38 05:57 10.08 ir
26/05/16 Vakariņš Biķerniekos Cassandra 11.05 1:06:26 06:00 9.98 ir
26/05/16 Rīta taciņas Cassandra 4.00 24:05 06:01 9.97 ir
25/05/16 Jauks vakariņš Cassandra 10.15 1:02:03 06:06 9.81 ir
25/05/16 Rīta taciņas Cassandra 3.20 19:08 05:58 10.03 ir
24/05/16 Fantastisks vasaras vakars Cassandra 10.00 1:00:20 06:02 9.94 ir
23/05/16 Galvas pavēdināšana Cassandra 6.50 38:10 05:52 10.22 ir
70.16
21/05/16 Pusdienlaika paskrējiens sakarsušā mežā Cassandra 9.50 54:40 05:45 10.43 ir
20/05/16 Joprojām ceriņi Cassandra 9.10 52:50 05:48 10.33 ir
19/05/16 Ceriņi, ceriņi... Cassandra 6.80 40:30 05:57 10.07 ir
19/05/16 Rīts mežā Cassandra 4.31 26:43 06:11 9.68 ir
18/05/16 Galvas pavēdināšana Cassandra 8.00 47:50 05:58 10.03 ir
17/05/16 Teikas ceriņi Cassandra 9.30 58:10 06:15 9.59 ir
16/05/16 Recoverijs Cassandra 6.50 38:55 05:59 10.02 ir
53.51
15/05/16 LRM Cassandra 42.20 4:13:31 06:00 9.99 ir
14/05/16 Pielijušā mežā Cassandra 4.50 26:40 05:55 10.13 ir
13/05/16 Rīta taciņas Cassandra 4.00 23:55 05:58 10.03 ir
12/05/16 Meža riksis Cassandra 6.55 38:58 05:56 10.09 ir
11/05/16 Testiņš Cassandra 10.00 52:20 05:14 11.46 ir
11/05/16 Mežā pēc lietus Cassandra 3.20 19:10 05:59 10.02 ir
10/05/16 Saulrieta krāsas Cassandra 3.50 20:40 05:54 10.16 ir
09/05/16 Ievas, ievas, ievas... Cassandra 14.00 1:19:40 05:41 10.54 ir
09/05/16 Meža smaržas Cassandra 3.20 19:20 06:02 9.93 ir
91.15
08/05/16 Patusnījiens pēc jēgas pārēšanas Cassandra 5.00 29:44 05:56 10.09 ir
06/05/16 Promenāde, tilti, salas Cassandra 17.10 1:44:04 06:05 9.86 ir
06/05/16 Trakās dienas rīts Cassandra 4.20 25:10 05:59 10.01 ir
05/05/16 Rotterdamas ieliņas Cassandra 9.00 55:10 06:07 9.79 ir
05/05/16 Rīta riksis gar kanāliem Cassandra 3.80 22:20 05:52 10.21 ir
04/05/16 Promenāde un parks Cassandra 11.00 1:06:00 06:00 10.00 ir
03/05/16 Rotterdamas kanāli Cassandra 12.00 1:12:10 06:00 9.98 ir
02/05/16 Roterdamas kanālmalas pilnos ziedos Cassandra 9.05 55:30 06:07 9.78 ir
02/05/16 Rīta taciņas Cassandra 4.80 29:20 06:06 9.82 ir
75.95
01/05/16 Uzsilušā mežā Cassandra 13.00 1:17:00 05:55 10.13 ir
29/04/16 Vakariņš Cassandra 8.55 51:20 06:00 9.99 ir
28/04/16 Ehhhh, Biķernieki ies garām :( Cassandra 6.00 36:29 06:04 9.87 ir
27/04/16 Zālīte Cassandra 9.50 48:00 05:03 11.88 ir
25/04/16 Rīts ar sāpošu kaklu Cassandra 4.80 28:45 05:59 10.02 ir
41.85
24/04/16 Slapjš un auksts Cassandra 15.36 1:26:15 05:36 10.69 ir
22/04/16 Pa mello banti Cassandra 8.15 40:00 04:54 12.23 ir
22/04/16 Rīta taciņas Cassandra 4.40 26:10 05:56 10.09 ir
21/04/16 Alfas aplītis Cassandra 11.15 1:05:27 05:52 10.22 ir
20/04/16 Brrrrrr Cassandra 10.50 1:03:05 06:00 9.99 ir
19/04/16 Lietus, vējs, peļķes... Cassandra 11.41 1:08:04 05:57 10.06 ir
19/04/16 Rīta taciņas Cassandra 3.20 19:15 06:00 9.97 ir
18/04/16 Drusku tempiņš Cassandra 11.00 58:33 05:19 11.27 ir
75.17
17/04/16 Brīvdienas rīts Cassandra 13.50 1:21:17 06:01 9.97 ir
15/04/16 Mēnesgaismā Cassandra 12.30 1:13:48 06:00 10.00 ir
14/04/16 Vakara izkustēšanās Cassandra 7.30 43:36 05:58 10.05 ir
13/04/16 Zālītē Cassandra 10.50 55:00 05:14 11.45 ir
12/04/16 Būs laikam jāpievēršas riteņbraukšanai Cassandra 3.50 21:10 06:02 9.92 ir
47.10
10/04/16 Bišķinš pa takām. Viss joprojām slikti... Cassandra 6.50 39:10 06:01 9.96 ir
08/04/16 Padauzīšanās pa zālīti Cassandra 8.50 45:00 05:17 11.33 ir
15.00
03/04/16 Neizdevušās Burtnieka ekspedīcijas vietā Cassandra 42.20 4:25:11 06:17 9.55 ir
02/04/16 Rīta saulainais Cassandra 9.05 56:19 06:13 9.64 ir
01/04/16 Bišķiņš Cassandra 7.20 42:20 05:52 10.20 ir
31/03/16 Galvas pavēdināšana Cassandra 7.50 44:10 05:53 10.19 ir
30/03/16 Plosīšanās pa banti Cassandra 10.55 53:00 05:01 11.94 ir
29/03/16 Biķernieki Cassandra 16.25 1:37:20 05:59 10.02 ir
92.75
26/03/16 Biķernieku aplīši Cassandra 18.40 1:48:02 05:52 10.22 ir
25/03/16 Vakara riksis Cassandra 15.60 1:29:35 05:44 10.45 ir
24/03/16 Galvas pavēdināšana Cassandra 7.80 46:48 06:00 10.00 ir
23/03/16 Pilnmēness Cassandra 13.10 1:15:10 05:44 10.46 ir
22/03/16 Biķernieki Cassandra 13.42 1:17:48 05:47 10.35 ir
21/03/16 Vakara izkustēšanās Cassandra 14.10 1:22:05 05:49 10.31 ir
82.42
19/03/16 Hydrapak testēšana. Puse iztecēja uz muguras... Cassandra 26.15 2:36:51 05:59 10.00 ir
18/03/16 Daži intervāliņi Cassandra 8.40 45:45 05:26 11.02 ir
17/03/16 Vakariņš Cassandra 11.06 1:02:24 05:38 10.63 ir
17/03/16 Brīvs rīts Cassandra 6.50 40:07 06:10 9.72 ir
16/03/16 Alfas aplītis Cassandra 13.35 1:17:18 05:47 10.36 ir
15/03/16 Negribīgais Cassandra 7.10 40:49 05:44 10.44 ir
14/03/16 Vakara paskrējiens Cassandra 14.45 1:23:29 05:46 10.39 ir
87.01
12/03/16 Biķernieki Cassandra 10.25 1:01:02 05:57 10.08 ir
11/03/16 Rīta riksis Cassandra 3.20 19:15 06:00 9.97 ir
10/03/16 Vakara paskrējiens Cassandra 11.55 1:06:52 05:47 10.36 ir
10/03/16 Rīta riksis Cassandra 3.55 21:20 06:00 9.98 ir
09/03/16 Intervāliņi pa banti Cassandra 10.00 47:50 04:47 12.54 ir
09/03/16 Rīta takas Cassandra 4.50 26:45 05:56 10.09 ir
08/03/16 Sniegs, peļķes, šļura... Cassandra 9.15 54:10 05:55 10.14 ir
07/03/16 Vakara aplītis Cassandra 13.30 1:18:09 05:52 10.21 ir
65.50
06/03/16 Vakariņš pēc kalna Cassandra 9.17 52:53 05:46 10.40 ir
04/03/16 Pa mello banti Cassandra 10.25 50:00 04:52 12.30 ir
03/03/16 Ioanninas nomale. Ugly place. Cassandra 12.25 1:13:10 05:58 10.05 ir
02/03/16 Promenāde gar jūru. Egejas jūru. Cassandra 12.65 1:16:40 06:03 9.90 ir
01/03/16 Rīta takas Cassandra 5.80 34:20 05:55 10.14 ir
29/02/16 Vakara aplītis Cassandra 13.10 1:16:27 05:50 10.28 ir
63.22
28/02/16 Pavasarīgais gar jūru Cassandra 30.33 3:10:17 06:16 9.56 ir
27/02/16 Pēc ceļojuma Cassandra 10.15 1:01:18 06:02 9.93 ir
25/02/16 Kaiser Wilhelm Promenade Cassandra 6.90 41:47 06:03 9.91 ir
24/02/16 Drusciņš pēc kalna Cassandra 6.20 37:15 06:00 9.99 ir
23/02/16 Kalnu takas Cassandra 6.30 37:40 05:58 10.04 ir
59.88
20/02/16 Pirms ceļa Cassandra 3.00 17:45 05:55 10.14 ir
19/02/16 Ap pusnakti Cassandra 8.20 47:50 05:50 10.29 ir
18/02/16 Slīdējiens Cassandra 8.45 49:04 05:48 10.33 ir
17/02/16 Alfas aplītis Cassandra 10.05 58:11 05:47 10.36 ir
17/02/16 Rīta takas Cassandra 3.15 19:15 06:06 9.82 ir
16/02/16 Vakara izkustēšanās Cassandra 8.50 49:36 05:50 10.28 ir
15/02/16 Vakara paskrējiens Cassandra 13.15 1:15:25 05:44 10.46 ir
54.50
14/02/16 Izkustēšanās pēc numuļļātas dienas Cassandra 10.40 59:22 05:42 10.51 ir
13/02/16 Blandīšanās pa meža takām Cassandra 15.25 1:32:28 06:03 9.90 ir
12/02/16 Pēdējais rīts saulainajā Milānā Cassandra 5.65 33:46 05:58 10.04 ir
11/02/16 Parco di Trenno Cassandra 12.05 1:12:28 06:00 9.98 ir
11/02/16 Saulains rīts Cassandra 3.75 22:08 05:54 10.17 ir
10/02/16 Milānas ielas Cassandra 13.50 1:20:28 05:57 10.07 ir
09/02/16 Anti-stress Cassandra 9.80 57:30 05:52 10.23 ir
08/02/16 Vakara paskrējiens Cassandra 11.30 1:07:09 05:56 10.10 ir
81.70
07/02/16 Maziņais Cassandra 5.10 30:45 06:01 9.95 ir
06/02/16 Tumsiņā gar jūru Cassandra 30.00 3:01:24 06:02 9.92 ir
05/02/16 Meža taciņas Cassandra 3.20 19:20 06:02 9.93 ir
04/02/16 Drusku slīd Cassandra 13.50 1:20:22 05:57 10.08 ir
03/02/16 Alfas aplītis Cassandra 12.50 1:13:40 05:53 10.18 ir
02/02/16 Vakariņš Cassandra 13.10 1:16:30 05:50 10.27 ir
01/02/16 Vakara paskrējiens Cassandra 8.05 45:08 05:36 10.70 ir
85.45
31/01/16 Putenī Cassandra 18.00 1:44:48 05:49 10.31 ir
30/01/16 Darbs traucē skriešanai... Cassandra 3.45 19:54 05:46 10.40 ir
29/01/16 Galvas pavēdināšana Cassandra 7.70 45:08 05:51 10.24 ir
28/01/16 Brrrriesmīgs pūtiens Cassandra 10.10 59:40 05:54 10.16 ir
27/01/16 Vakara mieriņam Cassandra 9.50 54:41 05:45 10.42 ir
27/01/16 Rīta riksis Cassandra 4.70 28:10 05:59 10.01 ir
26/01/16 Kā jau pīle uz ledus Cassandra 7.80 46:25 05:57 10.08 ir
25/01/16 40 min pa mello banti Cassandra 8.15 40:00 04:54 12.23 ir
25/01/16 Rīta taciņas Cassandra 3.80 23:20 06:08 9.77 ir
73.20
24/01/16 Bišķiņs pēc kalna Cassandra 3.20 19:29 06:05 9.85 ir
23/01/16 Klunkurējiens gar jūru. Bija grūti. Cassandra 21.60 2:08:12 05:56 10.11 ir
22/01/16 Vakara paskrējiens Cassandra 8.10 47:40 05:53 10.20 ir
21/01/16 Rīta riksis Cassandra 3.80 22:10 05:50 10.29 ir
21/01/16 Skumjais Cassandra 12.15 1:12:40 05:58 10.03 ir
20/01/16 Trakais bridiens Cassandra 6.00 38:57 06:29 9.24 ir
19/01/16 Sniegainais Alfas aplītis Cassandra 11.55 1:09:05 05:58 10.03 ir
19/01/16 Meža takas Cassandra 3.20 19:40 06:08 9.76 ir
18/01/16 Viegla izkustēšanās Cassandra 6.70 39:33 05:54 10.16 ir
76.30
17/01/16 Drusciņš pēc kalna Cassandra 5.67 31:50 05:36 10.69 ir
16/01/16 Saulains rīts Cassandra 10.30 1:01:29 05:58 10.05 ir
15/01/16 Vakariņš Cassandra 9.10 53:20 05:51 10.24 ir
14/01/16 Pēršanās pa sniega putru Cassandra 10.05 1:01:55 06:09 9.74 ir
14/01/16 Piesnigušas meža takas Cassandra 3.75 23:10 06:10 9.71 ir
13/01/16 Ap pusnakti putenī Cassandra 10.05 57:10 05:41 10.55 ir
12/01/16 Zālītē pa banti Cassandra 10.00 48:33 04:51 12.36 ir
11/01/16 Apsnigsim, par godu skumjajiem... Cassandra 13.25 1:22:10 06:12 9.68 ir
72.17
10/01/16 Izkustēšanās pēc kalna Cassandra 10.30 59:38 05:47 10.36 ir
09/01/16 Rīts piesnigušā mežā Cassandra 12.20 1:15:20 06:10 9.72 ir
08/01/16 Ar apsarmojušām ūsām Cassandra 6.05 34:20 05:40 10.57 ir
07/01/16 Pa mello banti Cassandra 10.00 48:35 04:51 12.35 ir
06/01/16 Sniegots vakariņš Cassandra 14.30 1:25:58 06:00 9.98 ir
05/01/16 Sasildīšanās Cassandra 8.25 49:08 05:57 10.07 ir
04/01/16 Bridiens pa kupenām Cassandra 9.20 55:40 06:03 9.92 ir
70.30
03/01/16 Sniega lāča vakara pastaiga Cassandra 3.55 21:57 06:10 9.70 ir
02/01/16 Pa banti Cassandra 5.00 23:45 04:45 12.63 ir
02/01/16 Ziemīgā mežā Cassandra 8.50 52:09 06:08 9.78 ir
01/01/16 Pirmais - jūra un sniedziņš Cassandra 33.16 3:18:03 05:58 10.05 ir
31/12/15 Noslēdzošais - pēc piparkūkām Cassandra 5.20 30:48 05:55 10.13 ir
30/12/15 Saulainais Cassandra 5.50 31:40 05:45 10.42 ir
29/12/15 Drusciņš svaiga gaisa Cassandra 10.20 58:21 05:43 10.49 ir
28/12/15 Pa sniedziņu Cassandra 13.20 1:17:20 05:51 10.24 ir
84.31
27/12/15 Biķernieki Cassandra 14.25 1:20:50 05:40 10.58 ir
26/12/15 Galvas pavēdināšana Cassandra 7.05 40:30 05:44 10.44 ir
26/12/15 Gandrīz saulains rīts Cassandra 6.05 36:45 06:04 9.88 ir
25/12/15 Ņiprais Cassandra 13.50 1:12:01 05:20 11.25 ir
24/12/15 Pirmssvētku rīts Cassandra 6.55 39:17 05:59 10.00 ir
23/12/15 Drusku tempiņš Cassandra 10.10 55:45 05:31 10.87 ir
23/12/15 Rīta taciņas Cassandra 4.65 30:05 06:28 9.27 ir
22/12/15 Vakara paskrējiens Cassandra 14.20 1:22:26 05:48 10.34 ir
21/12/15 Pēc ballītes Cassandra 8.30 48:22 05:49 10.30 ir
84.65
19/12/15 Krustu šķersu pa Mežaparku Cassandra 19.10 1:58:10 06:11 9.70 ir
18/12/15 Līdz Mežaparkam Cassandra 10.60 1:02:58 05:56 10.10 ir
18/12/15 Rīta takas Cassandra 3.30 20:15 06:08 9.78 ir
17/12/15 Vakara paskrējiens Cassandra 7.80 46:03 05:54 10.16 ir
16/12/15 Biķernieki & Alfa Cassandra 13.50 1:17:15 05:43 10.49 ir
15/12/15 Pusnaktī Cassandra 10.55 1:01:30 05:49 10.29 ir
14/12/15 Tāds kā sniedziņš Cassandra 12.80 1:17:50 06:04 9.87 ir
77.65
13/12/15 Uz veici Cassandra 4.05 21:56 05:24 11.08 ir
12/12/15 Biķernieki & Berģi Cassandra 27.25 2:45:50 06:05 9.86 ir
11/12/15 Vakariņš Cassandra 9.35 55:41 05:57 10.07 ir
10/12/15 Ciemos pie sunča Cassandra 10.80 1:04:10 05:56 10.10 ir
09/12/15 Alfas aplītis Cassandra 10.00 1:01:08 06:06 9.81 ir
09/12/15 Rīta takas Cassandra 3.30 20:10 06:06 9.82 ir
08/12/15 Rīts mežā Cassandra 5.20 30:40 05:53 10.17 ir
07/12/15 Līdz Mežaparkam Cassandra 11.00 1:04:18 05:50 10.26 ir
80.95
06/12/15 Sasildīšanās Cassandra 7.15 43:26 06:04 9.88 ir
05/12/15 Mangaļsalas mols Cassandra 30.90 3:02:16 05:53 10.17 ir
04/12/15 Vakarvējā Cassandra 6.80 41:40 06:07 9.79 ir
03/12/15 Rīta pakustēšanās Cassandra 2.80 16:30 05:53 10.18 ir
02/12/15 Teikas riksis Cassandra 15.05 1:21:29 05:24 11.08 ir
02/12/15 Traki agrā rītā Cassandra 2.80 16:30 05:53 10.18 ir
01/12/15 Pa mello banti Cassandra 11.00 55:00 05:00 12.00 ir
30/11/15 Tumsa, lietus, peļķes... Cassandra 5.00 30:05 06:01 9.97 ir
81.50
28/11/15 Piķurgas SSV Cassandra 30.00 3:01:00 06:02 9.94 ir
27/11/15 Vakara paslinkais Cassandra 12.10 1:14:10 06:07 9.79 ir
26/11/15 Rīta taciņas Cassandra 3.20 20:05 06:16 9.56 ir
26/11/15 Alfas aplītis Cassandra 10.05 57:31 05:43 10.48 ir
25/11/15 Vakara paskrējiens Cassandra 10.50 1:01:56 05:53 10.17 ir
24/11/15 Meža taciņas Cassandra 3.20 19:45 06:10 9.72 ir
23/11/15 Pirmajā sniedziņā Cassandra 10.50 1:03:28 06:02 9.93 ir
79.55
21/11/15 Saulains rīts Cassandra 11.20 1:10:20 06:16 9.55 ir
20/11/15 Jauks vakariņš Cassandra 11.20 1:04:57 05:47 10.35 ir
19/11/15 No servisa ar līkumiņu Cassandra 12.00 1:14:50 06:14 9.62 ir
19/11/15 Rīta pampaciņi Cassandra 3.30 20:10 06:06 9.82 ir
18/11/15 Teikas riksis Cassandra 16.50 1:33:04 05:38 10.64 ir
17/11/15 Ķīpsalā pa banti Cassandra 7.00 34:20 04:54 12.23 ir
17/11/15 Rīta taciņas Cassandra 3.70 23:45 06:25 9.35 ir
16/11/15 Mierīgs vakariņš Cassandra 8.10 49:50 06:09 9.75 ir
73.00
15/11/15 Koptreniņš "Latvijai 97" Cassandra 34.10 3:29:33 06:08 9.76 ir
13/11/15 Vakara izmirciens Cassandra 8.10 48:49 06:01 9.96 ir
12/11/15 Niknais pa mello banti Cassandra 7.00 33:50 04:50 12.41 ir
12/11/15 Iekustēšanās Cassandra 4.00 24:50 06:12 9.66 ir
11/11/15 Vakara mazais Cassandra 8.11 48:04 05:55 10.12 ir
11/11/15 Rīta paskrējiens Cassandra 6.55 40:25 06:10 9.72 ir
10/11/15 Vakara vējainais Cassandra 12.10 1:13:40 06:05 9.86 ir
09/11/15 Starp lietiem Cassandra 11.35 1:10:44 06:13 9.63 ir
91.31
07/11/15 Dzelzāmura meži Cassandra 11.90 1:14:37 06:16 9.57 ir
06/11/15 Naksnīgais Mežaparkā Cassandra 11.10 1:11:37 06:27 9.30 ir
06/11/15 Rīta takas Cassandra 3.20 20:10 06:18 9.52 ir
05/11/15 Vakara izkustēšanās Cassandra 7.00 44:07 06:18 9.52 ir
04/11/15 Vakariņš zālītē Cassandra 7.50 45:00 06:00 10.00 ir
03/11/15 Stīvuma izdzīšana Cassandra 12.90 1:21:30 06:19 9.50 ir
02/11/15 Stīvais patipinājiens Cassandra 7.20 44:35 06:11 9.69 ir
60.80
31/10/15 Haanja Ultra 100 !!! Cassandra 100.00 12:44:18 07:38 7.85 ir
30/10/15 Iesildīšanās pirms rītdienas ballītes Cassandra 3.00 18:30 06:10 9.73 ir
29/10/15 Pačabināšanās pa zeltainajām lapām Cassandra 5.10 30:10 05:54 10.14 ir
28/10/15 Vakara izkustēšanās Cassandra 9.15 54:23 05:56 10.10 ir
27/10/15 Paplosīšanās pa mello banti Cassandra 12.00 1:00:00 05:00 12.00 ir
26/10/15 Vakara izkustēšanās Cassandra 12.35 1:14:10 06:00 9.99 ir
141.60
24/10/15 Līdz Garciemam Cassandra 32.20 3:11:30 05:56 10.09 ir
23/10/15 Mierīgs vakariņš Cassandra 9.50 56:20 05:55 10.12 ir
22/10/15 Intervāli pa mello banti Cassandra 10.00 48:20 04:50 12.41 ir
22/10/15 Pampaciņi Cassandra 4.20 25:03 05:57 10.06 ir
21/10/15 Krītošu lapu lietū Cassandra 11.10 1:04:00 05:45 10.41 ir
21/10/15 Rīta iekustēšanās Cassandra 3.30 19:08 05:47 10.35 ir
20/10/15 Alfas aplītis Cassandra 10.05 58:00 05:46 10.40 ir
20/10/15 Rīta fiksais Cassandra 3.30 18:28 05:35 10.72 ir
19/10/15 Galvas pavēdināšana Cassandra 10.25 58:15 05:40 10.56 ir
93.90
18/10/15 Siguldas takas Cassandra 10.23 1:12:10 07:03 8.51 ir
17/10/15 Meža smaržas Cassandra 7.35 43:29 05:54 10.14 ir
16/10/15 Mierīgs vakariņš Cassandra 11.11 1:04:57 05:50 10.26 ir
14/10/15 Vīrusa izdzīšana Cassandra 13.00 1:14:20 05:43 10.49 ir
13/10/15 Vakara paskrējiens Cassandra 10.55 1:01:35 05:50 10.28 ir
12/10/15 Afterpārtijs Cassandra 13.15 1:15:56 05:46 10.39 ir
65.39
11/10/15 Saulrietā līdz jūrai Cassandra 21.10 1:58:49 05:37 10.66 ir
10/10/15 Fiksais pirms ballītes Cassandra 8.70 49:12 05:39 10.61 ir
10/10/15 Mierīgs brīvdienas rīts Cassandra 8.10 49:00 06:02 9.92 ir
09/10/15 Vakariņš Cassandra 11.25 1:06:27 05:54 10.16 ir
09/10/15 Stresains rīts Cassandra 3.00 18:10 06:03 9.91 ir
08/10/15 Rīta iekustēšanās Cassandra 3.50 21:40 06:11 9.69 ir
07/10/15 Dzestra, zvaigžonta nakts Cassandra 14.50 1:25:07 05:52 10.22 ir
06/10/15 Brrrriesmīgi agrais rīts Cassandra 4.25 25:10 05:55 10.13 ir
05/10/15 Pirms saullēkta tumsiņā Cassandra 8.50 51:03 06:00 9.99 ir
82.90
04/10/15 Miglains rīts Cassandra 9.00 54:03 06:00 9.99 ir
03/10/15 Rīts mežā Cassandra 8.00 47:50 05:58 10.03 ir
02/10/15 Vakara paskrējiens Cassandra 12.50 1:14:35 05:58 10.06 ir
01/10/15 Vēlreiz līdz okeānam Cassandra 7.50 44:28 05:55 10.12 ir
30/09/15 Rio Douro promenāde Cassandra 7.55 46:10 06:06 9.81 ir
29/09/15 Rio Douro un saulriets okeānā Cassandra 13.50 1:21:05 06:00 9.99 ir
28/09/15 Porto kalniņi Cassandra 4.50 27:30 06:06 9.82 ir
62.55
27/09/15 Neparedzēts izmirciens Cassandra 12.55 1:15:10 05:59 10.02 ir
26/09/15 Rīts mežā Cassandra 10.10 1:00:10 05:57 10.07 ir
25/09/15 Naksnīgais Cassandra 13.10 1:18:10 05:58 10.06 ir
24/09/15 Mēnesgaismā Cassandra 10.00 58:03 05:48 10.34 ir
24/09/15 Rīta taciņas Cassandra 4.00 24:20 06:05 9.86 ir
23/09/15 Vakariņš Biķerniekos Cassandra 10.05 59:35 05:55 10.12 ir
22/09/15 Pirms saullēkta Cassandra 6.30 37:35 05:57 10.06 ir
21/09/15 Casablanca... Cassandra 12.30 1:14:10 06:01 9.95 ir
78.40
20/09/15 Smilšu Stadions u.c. izklaides Cassandra 9.45 56:03 05:55 10.12 ir
19/09/15 Meža takas Cassandra 9.80 59:43 06:05 9.85 ir
18/09/15 Pampaciņi Cassandra 6.75 44:44 06:37 9.05 ir
17/09/15 Fantastisks vakariņš Cassandra 14.10 1:22:38 05:51 10.24 ir
16/09/15 Pūkainais Cassandra 12.85 1:14:30 05:47 10.35 ir
15/09/15 Vakara paskrējiens Cassandra 13.50 1:19:28 05:53 10.19 ir
14/09/15 Vakara mieriņam Cassandra 10.35 1:03:28 06:07 9.78 ir
14/09/15 Rīta takas Cassandra 3.30 20:15 06:08 9.78 ir
80.10
12/09/15 Mežaparka burvība Cassandra 16.05 1:32:08 05:44 10.45 ir
12/09/15 Brīvdienas rīts Cassandra 5.55 35:06 06:19 9.49 ir
11/09/15 Vakara mierīgais Cassandra 11.20 1:09:10 06:10 9.72 ir
10/09/15 Līdz Mežaparkam Cassandra 11.00 1:09:36 06:19 9.48 ir
10/09/15 Rīta pampaciņi Cassandra 3.30 20:10 06:06 9.82 ir
09/09/15 Zvaigžņotā naktī Cassandra 12.80 1:17:08 06:01 9.96 ir
08/09/15 Pēc pusnakts Cassandra 7.15 42:40 05:58 10.05 ir
07/09/15 Under the pouring rain Cassandra 11.10 1:04:50 05:50 10.27 ir
78.15
05/09/15 Uz jūru Cassandra 12.27 1:11:10 05:48 10.34 ir
05/09/15 Saulains rīts Cassandra 6.65 40:28 06:05 9.86 ir
04/09/15 Vakara mierīgais Cassandra 8.35 50:55 06:05 9.84 ir
03/09/15 Vakara aplītis Cassandra 9.80 1:01:00 06:13 9.64 ir
02/09/15 Līdz Mežaparkam Cassandra 10.15 1:03:25 06:14 9.60 ir
02/09/15 Rīta takas Cassandra 3.30 20:12 06:07 9.80 ir
01/09/15 Vakara aplītis Cassandra 10.35 1:02:53 06:04 9.88 ir
01/09/15 Rīta paskrējiens Cassandra 3.35 21:10 06:19 9.50 ir
31/08/15 Alfas aplītis Cassandra 9.60 59:24 06:11 9.70 ir
31/08/15 Rīta iekustēšanās Cassandra 3.30 20:17 06:08 9.76 ir
77.12
29/08/15 Vakara mieriņam Cassandra 8.35 52:25 06:16 9.56 ir
29/08/15 Drusku svaiga gaisa Cassandra 3.55 22:02 06:12 9.67 ir
28/08/15 Galvas pavēdināšana Cassandra 7.70 47:30 06:10 9.73 ir
27/08/15 Rīta izkustēšanās Cassandra 3.80 24:30 06:26 9.31 ir
26/08/15 Smaržo pēc vīstošām lapām Cassandra 9.35 59:23 06:21 9.45 ir
26/08/15 Rīta takas Cassandra 4.60 29:30 06:24 9.36 ir
25/08/15 Grieķijas vakariņš Cassandra 13.15 1:21:26 06:11 9.69 ir
24/08/15 Rīta paskrējiens Cassandra 8.00 52:04 06:30 9.22 ir
58.50
22/08/15 Rīta takas un pampaciņi Cassandra 7.30 48:29 06:38 9.03 ir
21/08/15 Vakara mieriņš Cassandra 7.27 46:19 06:22 9.42 ir
21/08/15 Rīta takas Cassandra 4.15 26:42 06:26 9.33 ir
20/08/15 Uz Mežaparku Cassandra 9.20 56:57